<?xml version="1.0" encoding="UTF-8" standalone="no" ?>
<gpx xmlns="http://www.topografix.com/GPX/1/1" xmlns:xsi="http://www.w3.org/2001/XMLSchema-instance" xsi:schemaLocation="http://www.topografix.com/GPX/1/1 http://www.topografix.com/GPX/1/1/gpx.xsd" version="1.1" creator="VisuGPX - https://www.visugpx.com">
  <metadata>
    <name>Activité de Randonnée TwoNav</name>
    <desc><![CDATA[CIRCUIT DE LA BLIES _ ANNEAU BLEU.trk]]></desc>
  </metadata>
  <trk>
    <name><![CDATA[Activité de Randonnée TwoNav_1]]></name>
    <trkseg>
      <trkpt lat="49.13531" lon="7.07982">
        <ele>248.6</ele>
        <time>2022-03-06T14:20:03Z</time>
      </trkpt>
      <trkpt lat="49.13536" lon="7.07975">
        <ele>248.9</ele>
        <time>2022-03-06T14:20:04Z</time>
      </trkpt>
      <trkpt lat="49.13541" lon="7.07967">
        <ele>249.1</ele>
        <time>2022-03-06T14:20:16Z</time>
      </trkpt>
      <trkpt lat="49.13545" lon="7.0796">
        <ele>249.4</ele>
        <time>2022-03-06T14:20:22Z</time>
      </trkpt>
      <trkpt lat="49.1355" lon="7.07953">
        <ele>249.5</ele>
        <time>2022-03-06T14:20:36Z</time>
      </trkpt>
      <trkpt lat="49.13555" lon="7.07946">
        <ele>249.7</ele>
        <time>2022-03-06T14:20:43Z</time>
      </trkpt>
      <trkpt lat="49.13559" lon="7.07939">
        <ele>249.8</ele>
        <time>2022-03-06T14:20:43Z</time>
      </trkpt>
      <trkpt lat="49.13556" lon="7.07926">
        <ele>250</ele>
        <time>2022-03-06T14:20:51Z</time>
      </trkpt>
      <trkpt lat="49.1356" lon="7.07913">
        <ele>250.2</ele>
        <time>2022-03-06T14:20:59Z</time>
      </trkpt>
      <trkpt lat="49.13563" lon="7.07899">
        <ele>250.5</ele>
        <time>2022-03-06T14:21:13Z</time>
      </trkpt>
      <trkpt lat="49.13567" lon="7.07883">
        <ele>250.8</ele>
        <time>2022-03-06T14:21:25Z</time>
      </trkpt>
      <trkpt lat="49.13575" lon="7.07877">
        <ele>251.1</ele>
        <time>2022-03-06T14:21:30Z</time>
      </trkpt>
      <trkpt lat="49.13579" lon="7.07863">
        <ele>251.4</ele>
        <time>2022-03-06T14:21:41Z</time>
      </trkpt>
      <trkpt lat="49.13588" lon="7.07852">
        <ele>251.8</ele>
        <time>2022-03-06T14:21:48Z</time>
      </trkpt>
      <trkpt lat="49.13605" lon="7.07823">
        <ele>252.6</ele>
        <time>2022-03-06T14:21:58Z</time>
      </trkpt>
      <trkpt lat="49.13616" lon="7.07814">
        <ele>253.1</ele>
        <time>2022-03-06T14:22:02Z</time>
      </trkpt>
      <trkpt lat="49.13617" lon="7.07799">
        <ele>253.5</ele>
        <time>2022-03-06T14:22:10Z</time>
      </trkpt>
      <trkpt lat="49.13712" lon="7.07594">
        <ele>260.9</ele>
        <time>2022-03-06T14:24:17Z</time>
      </trkpt>
      <trkpt lat="49.137" lon="7.07593">
        <ele>261.5</ele>
        <time>2022-03-06T14:24:19Z</time>
      </trkpt>
      <trkpt lat="49.13695" lon="7.07594">
        <ele>261.7</ele>
        <time>2022-03-06T14:24:24Z</time>
      </trkpt>
      <trkpt lat="49.13692" lon="7.07592">
        <ele>261.9</ele>
        <time>2022-03-06T14:24:25Z</time>
      </trkpt>
      <trkpt lat="49.13704" lon="7.07582">
        <ele>262.6</ele>
        <time>2022-03-06T14:24:31Z</time>
      </trkpt>
      <trkpt lat="49.13709" lon="7.07581">
        <ele>262.8</ele>
        <time>2022-03-06T14:24:32Z</time>
      </trkpt>
      <trkpt lat="49.13704" lon="7.07569">
        <ele>263.3</ele>
        <time>2022-03-06T14:24:37Z</time>
      </trkpt>
      <trkpt lat="49.13718" lon="7.07562">
        <ele>264.1</ele>
        <time>2022-03-06T14:24:41Z</time>
      </trkpt>
      <trkpt lat="49.13726" lon="7.07554">
        <ele>264.7</ele>
        <time>2022-03-06T14:24:44Z</time>
      </trkpt>
      <trkpt lat="49.1372" lon="7.07543">
        <ele>265.2</ele>
        <time>2022-03-06T14:24:49Z</time>
      </trkpt>
      <trkpt lat="49.13735" lon="7.07531">
        <ele>266</ele>
        <time>2022-03-06T14:24:54Z</time>
      </trkpt>
      <trkpt lat="49.13747" lon="7.07531">
        <ele>266.6</ele>
        <time>2022-03-06T14:24:56Z</time>
      </trkpt>
      <trkpt lat="49.13756" lon="7.07525">
        <ele>267</ele>
        <time>2022-03-06T14:25:02Z</time>
      </trkpt>
      <trkpt lat="49.13763" lon="7.07517">
        <ele>267.4</ele>
        <time>2022-03-06T14:25:08Z</time>
      </trkpt>
      <trkpt lat="49.13766" lon="7.07501">
        <ele>267.6</ele>
        <time>2022-03-06T14:25:16Z</time>
      </trkpt>
      <trkpt lat="49.13768" lon="7.07487">
        <ele>267.7</ele>
        <time>2022-03-06T14:25:22Z</time>
      </trkpt>
      <trkpt lat="49.13775" lon="7.07474">
        <ele>267.9</ele>
        <time>2022-03-06T14:25:36Z</time>
      </trkpt>
      <trkpt lat="49.13766" lon="7.07468">
        <ele>267.9</ele>
        <time>2022-03-06T14:25:44Z</time>
      </trkpt>
      <trkpt lat="49.13758" lon="7.07473">
        <ele>267.9</ele>
        <time>2022-03-06T14:25:51Z</time>
      </trkpt>
      <trkpt lat="49.13748" lon="7.07475">
        <ele>267.8</ele>
        <time>2022-03-06T14:26:01Z</time>
      </trkpt>
      <trkpt lat="49.13739" lon="7.07475">
        <ele>267.8</ele>
        <time>2022-03-06T14:26:05Z</time>
      </trkpt>
      <trkpt lat="49.13729" lon="7.07472">
        <ele>267.4</ele>
        <time>2022-03-06T14:26:09Z</time>
      </trkpt>
      <trkpt lat="49.13731" lon="7.07474">
        <ele>267.4</ele>
        <time>2022-03-06T14:26:17Z</time>
      </trkpt>
      <trkpt lat="49.13731" lon="7.07474">
        <ele>267.4</ele>
        <time>2022-03-06T14:26:18Z</time>
      </trkpt>
      <trkpt lat="49.13726" lon="7.07462">
        <ele>267.1</ele>
        <time>2022-03-06T14:26:37Z</time>
      </trkpt>
      <trkpt lat="49.13717" lon="7.07461">
        <ele>266.9</ele>
        <time>2022-03-06T14:27:09Z</time>
      </trkpt>
      <trkpt lat="49.13706" lon="7.07463">
        <ele>266.7</ele>
        <time>2022-03-06T14:27:14Z</time>
      </trkpt>
      <trkpt lat="49.1372" lon="7.07471">
        <ele>267.2</ele>
        <time>2022-03-06T14:27:20Z</time>
      </trkpt>
      <trkpt lat="49.13731" lon="7.07476">
        <ele>267.4</ele>
        <time>2022-03-06T14:27:26Z</time>
      </trkpt>
      <trkpt lat="49.13743" lon="7.07474">
        <ele>267.8</ele>
        <time>2022-03-06T14:27:28Z</time>
      </trkpt>
      <trkpt lat="49.13752" lon="7.0748">
        <ele>268</ele>
        <time>2022-03-06T14:27:33Z</time>
      </trkpt>
      <trkpt lat="49.13762" lon="7.07485">
        <ele>268.3</ele>
        <time>2022-03-06T14:27:36Z</time>
      </trkpt>
      <trkpt lat="49.13767" lon="7.07498">
        <ele>268.5</ele>
        <time>2022-03-06T14:27:45Z</time>
      </trkpt>
      <trkpt lat="49.13757" lon="7.07506">
        <ele>268.6</ele>
        <time>2022-03-06T14:27:50Z</time>
      </trkpt>
      <trkpt lat="49.13765" lon="7.07515">
        <ele>268.8</ele>
        <time>2022-03-06T14:28:07Z</time>
      </trkpt>
      <trkpt lat="49.13773" lon="7.07526">
        <ele>269</ele>
        <time>2022-03-06T14:28:17Z</time>
      </trkpt>
      <trkpt lat="49.13784" lon="7.07534">
        <ele>269.3</ele>
        <time>2022-03-06T14:28:21Z</time>
      </trkpt>
      <trkpt lat="49.13791" lon="7.07543">
        <ele>269.5</ele>
        <time>2022-03-06T14:28:27Z</time>
      </trkpt>
      <trkpt lat="49.13797" lon="7.07554">
        <ele>269.8</ele>
        <time>2022-03-06T14:28:34Z</time>
      </trkpt>
      <trkpt lat="49.13804" lon="7.07563">
        <ele>270</ele>
        <time>2022-03-06T14:28:47Z</time>
      </trkpt>
      <trkpt lat="49.13817" lon="7.0757">
        <ele>270.5</ele>
        <time>2022-03-06T14:28:51Z</time>
      </trkpt>
      <trkpt lat="49.13827" lon="7.07572">
        <ele>270.9</ele>
        <time>2022-03-06T14:28:57Z</time>
      </trkpt>
      <trkpt lat="49.13821" lon="7.07583">
        <ele>271.3</ele>
        <time>2022-03-06T14:29:13Z</time>
      </trkpt>
      <trkpt lat="49.1383" lon="7.07592">
        <ele>271.8</ele>
        <time>2022-03-06T14:29:17Z</time>
      </trkpt>
      <trkpt lat="49.13838" lon="7.076">
        <ele>272.3</ele>
        <time>2022-03-06T14:29:21Z</time>
      </trkpt>
      <trkpt lat="49.13838" lon="7.07614">
        <ele>272.7</ele>
        <time>2022-03-06T14:29:32Z</time>
      </trkpt>
      <trkpt lat="49.13847" lon="7.07617">
        <ele>273.1</ele>
        <time>2022-03-06T14:29:35Z</time>
      </trkpt>
      <trkpt lat="49.13856" lon="7.07619">
        <ele>273.6</ele>
        <time>2022-03-06T14:29:42Z</time>
      </trkpt>
      <trkpt lat="49.13866" lon="7.07622">
        <ele>274.1</ele>
        <time>2022-03-06T14:29:47Z</time>
      </trkpt>
      <trkpt lat="49.13875" lon="7.07627">
        <ele>274.6</ele>
        <time>2022-03-06T14:29:53Z</time>
      </trkpt>
      <trkpt lat="49.13884" lon="7.07631">
        <ele>275.2</ele>
        <time>2022-03-06T14:30:09Z</time>
      </trkpt>
      <trkpt lat="49.13894" lon="7.07635">
        <ele>275.8</ele>
        <time>2022-03-06T14:30:15Z</time>
      </trkpt>
      <trkpt lat="49.13904" lon="7.0764">
        <ele>276.4</ele>
        <time>2022-03-06T14:30:21Z</time>
      </trkpt>
      <trkpt lat="49.13914" lon="7.07643">
        <ele>276.9</ele>
        <time>2022-03-06T14:30:26Z</time>
      </trkpt>
      <trkpt lat="49.13945" lon="7.07631">
        <ele>278.2</ele>
        <time>2022-03-06T14:30:47Z</time>
      </trkpt>
      <trkpt lat="49.13954" lon="7.07626">
        <ele>278.5</ele>
        <time>2022-03-06T14:30:49Z</time>
      </trkpt>
      <trkpt lat="49.13963" lon="7.07628">
        <ele>278.7</ele>
        <time>2022-03-06T14:30:53Z</time>
      </trkpt>
      <trkpt lat="49.13977" lon="7.07619">
        <ele>278.9</ele>
        <time>2022-03-06T14:31:07Z</time>
      </trkpt>
      <trkpt lat="49.13967" lon="7.07625">
        <ele>279</ele>
        <time>2022-03-06T14:31:12Z</time>
      </trkpt>
      <trkpt lat="49.1397" lon="7.07638">
        <ele>279.1</ele>
        <time>2022-03-06T14:31:23Z</time>
      </trkpt>
      <trkpt lat="49.13963" lon="7.07649">
        <ele>279.1</ele>
        <time>2022-03-06T14:31:33Z</time>
      </trkpt>
      <trkpt lat="49.13959" lon="7.07662">
        <ele>279</ele>
        <time>2022-03-06T14:31:56Z</time>
      </trkpt>
      <trkpt lat="49.1397" lon="7.0767">
        <ele>278.9</ele>
        <time>2022-03-06T14:32:01Z</time>
      </trkpt>
      <trkpt lat="49.13981" lon="7.07678">
        <ele>278.7</ele>
        <time>2022-03-06T14:32:07Z</time>
      </trkpt>
      <trkpt lat="49.13992" lon="7.0769">
        <ele>278.4</ele>
        <time>2022-03-06T14:32:10Z</time>
      </trkpt>
      <trkpt lat="49.14001" lon="7.07694">
        <ele>278.1</ele>
        <time>2022-03-06T14:32:14Z</time>
      </trkpt>
      <trkpt lat="49.14" lon="7.07708">
        <ele>277.8</ele>
        <time>2022-03-06T14:32:36Z</time>
      </trkpt>
      <trkpt lat="49.13998" lon="7.07722">
        <ele>277.4</ele>
        <time>2022-03-06T14:32:48Z</time>
      </trkpt>
      <trkpt lat="49.14005" lon="7.07731">
        <ele>277.1</ele>
        <time>2022-03-06T14:32:56Z</time>
      </trkpt>
      <trkpt lat="49.14006" lon="7.07747">
        <ele>276.8</ele>
        <time>2022-03-06T14:33:23Z</time>
      </trkpt>
      <trkpt lat="49.14013" lon="7.07757">
        <ele>276.4</ele>
        <time>2022-03-06T14:33:27Z</time>
      </trkpt>
      <trkpt lat="49.14018" lon="7.07772">
        <ele>275.9</ele>
        <time>2022-03-06T14:33:33Z</time>
      </trkpt>
      <trkpt lat="49.14021" lon="7.07776">
        <ele>275.7</ele>
        <time>2022-03-06T14:33:43Z</time>
      </trkpt>
      <trkpt lat="49.1402" lon="7.07776">
        <ele>275.6</ele>
        <time>2022-03-06T14:33:44Z</time>
      </trkpt>
      <trkpt lat="49.14025" lon="7.07794">
        <ele>274.9</ele>
        <time>2022-03-06T14:33:54Z</time>
      </trkpt>
      <trkpt lat="49.14023" lon="7.07808">
        <ele>274.2</ele>
        <time>2022-03-06T14:34:03Z</time>
      </trkpt>
      <trkpt lat="49.14034" lon="7.07818">
        <ele>273.2</ele>
        <time>2022-03-06T14:34:36Z</time>
      </trkpt>
      <trkpt lat="49.14043" lon="7.07831">
        <ele>272.3</ele>
        <time>2022-03-06T14:34:48Z</time>
      </trkpt>
      <trkpt lat="49.14054" lon="7.07838">
        <ele>271.5</ele>
        <time>2022-03-06T14:34:50Z</time>
      </trkpt>
      <trkpt lat="49.14063" lon="7.07841">
        <ele>271.1</ele>
        <time>2022-03-06T14:34:52Z</time>
      </trkpt>
      <trkpt lat="49.14075" lon="7.07846">
        <ele>270.8</ele>
        <time>2022-03-06T14:34:56Z</time>
      </trkpt>
      <trkpt lat="49.14085" lon="7.07849">
        <ele>270.8</ele>
        <time>2022-03-06T14:34:58Z</time>
      </trkpt>
      <trkpt lat="49.141" lon="7.07855">
        <ele>271.2</ele>
        <time>2022-03-06T14:35:01Z</time>
      </trkpt>
      <trkpt lat="49.14111" lon="7.07855">
        <ele>271.7</ele>
        <time>2022-03-06T14:35:03Z</time>
      </trkpt>
      <trkpt lat="49.14127" lon="7.07853">
        <ele>272.5</ele>
        <time>2022-03-06T14:35:07Z</time>
      </trkpt>
      <trkpt lat="49.14157" lon="7.07841">
        <ele>273.6</ele>
        <time>2022-03-06T14:35:21Z</time>
      </trkpt>
      <trkpt lat="49.14167" lon="7.07839">
        <ele>273.8</ele>
        <time>2022-03-06T14:35:23Z</time>
      </trkpt>
      <trkpt lat="49.14176" lon="7.07843">
        <ele>273.9</ele>
        <time>2022-03-06T14:35:28Z</time>
      </trkpt>
      <trkpt lat="49.14186" lon="7.07843">
        <ele>274</ele>
        <time>2022-03-06T14:35:36Z</time>
      </trkpt>
      <trkpt lat="49.14204" lon="7.07824">
        <ele>273.8</ele>
        <time>2022-03-06T14:35:47Z</time>
      </trkpt>
      <trkpt lat="49.14212" lon="7.07818">
        <ele>273.7</ele>
        <time>2022-03-06T14:35:55Z</time>
      </trkpt>
      <trkpt lat="49.14222" lon="7.07816">
        <ele>273.6</ele>
        <time>2022-03-06T14:36:01Z</time>
      </trkpt>
      <trkpt lat="49.14231" lon="7.07815">
        <ele>273.5</ele>
        <time>2022-03-06T14:36:15Z</time>
      </trkpt>
      <trkpt lat="49.14235" lon="7.07816">
        <ele>273.5</ele>
        <time>2022-03-06T14:36:19Z</time>
      </trkpt>
      <trkpt lat="49.14235" lon="7.07817">
        <ele>273.5</ele>
        <time>2022-03-06T14:36:20Z</time>
      </trkpt>
      <trkpt lat="49.14234" lon="7.07803">
        <ele>273.5</ele>
        <time>2022-03-06T14:36:28Z</time>
      </trkpt>
      <trkpt lat="49.14243" lon="7.07795">
        <ele>273.4</ele>
        <time>2022-03-06T14:36:31Z</time>
      </trkpt>
      <trkpt lat="49.14253" lon="7.07795">
        <ele>273.5</ele>
        <time>2022-03-06T14:36:38Z</time>
      </trkpt>
      <trkpt lat="49.14265" lon="7.0779">
        <ele>273.6</ele>
        <time>2022-03-06T14:36:42Z</time>
      </trkpt>
      <trkpt lat="49.14275" lon="7.07785">
        <ele>273.7</ele>
        <time>2022-03-06T14:36:45Z</time>
      </trkpt>
      <trkpt lat="49.14267" lon="7.07777">
        <ele>273.7</ele>
        <time>2022-03-06T14:36:49Z</time>
      </trkpt>
      <trkpt lat="49.14277" lon="7.0778">
        <ele>273.8</ele>
        <time>2022-03-06T14:37:02Z</time>
      </trkpt>
      <trkpt lat="49.14289" lon="7.07778">
        <ele>273.8</ele>
        <time>2022-03-06T14:37:11Z</time>
      </trkpt>
      <trkpt lat="49.14298" lon="7.07776">
        <ele>273.8</ele>
        <time>2022-03-06T14:37:14Z</time>
      </trkpt>
      <trkpt lat="49.14305" lon="7.07786">
        <ele>273.8</ele>
        <time>2022-03-06T14:37:25Z</time>
      </trkpt>
      <trkpt lat="49.14315" lon="7.07781">
        <ele>273.6</ele>
        <time>2022-03-06T14:37:33Z</time>
      </trkpt>
      <trkpt lat="49.14325" lon="7.0778">
        <ele>273.4</ele>
        <time>2022-03-06T14:37:43Z</time>
      </trkpt>
      <trkpt lat="49.14332" lon="7.07768">
        <ele>273.1</ele>
        <time>2022-03-06T14:37:53Z</time>
      </trkpt>
      <trkpt lat="49.14336" lon="7.07782">
        <ele>272.7</ele>
        <time>2022-03-06T14:38:00Z</time>
      </trkpt>
      <trkpt lat="49.14345" lon="7.07773">
        <ele>272.1</ele>
        <time>2022-03-06T14:38:11Z</time>
      </trkpt>
      <trkpt lat="49.14354" lon="7.07769">
        <ele>271.6</ele>
        <time>2022-03-06T14:38:19Z</time>
      </trkpt>
      <trkpt lat="49.14355" lon="7.07754">
        <ele>271</ele>
        <time>2022-03-06T14:38:24Z</time>
      </trkpt>
      <trkpt lat="49.14363" lon="7.07744">
        <ele>270.3</ele>
        <time>2022-03-06T14:38:29Z</time>
      </trkpt>
      <trkpt lat="49.14374" lon="7.0775">
        <ele>269.6</ele>
        <time>2022-03-06T14:38:34Z</time>
      </trkpt>
      <trkpt lat="49.14383" lon="7.07754">
        <ele>269.1</ele>
        <time>2022-03-06T14:38:43Z</time>
      </trkpt>
      <trkpt lat="49.14392" lon="7.07752">
        <ele>268.7</ele>
        <time>2022-03-06T14:38:51Z</time>
      </trkpt>
      <trkpt lat="49.14401" lon="7.07747">
        <ele>268.4</ele>
        <time>2022-03-06T14:38:55Z</time>
      </trkpt>
      <trkpt lat="49.1441" lon="7.07743">
        <ele>268.1</ele>
        <time>2022-03-06T14:39:03Z</time>
      </trkpt>
      <trkpt lat="49.1442" lon="7.07746">
        <ele>267.8</ele>
        <time>2022-03-06T14:39:25Z</time>
      </trkpt>
      <trkpt lat="49.1443" lon="7.07748">
        <ele>267.6</ele>
        <time>2022-03-06T14:39:33Z</time>
      </trkpt>
      <trkpt lat="49.1444" lon="7.07743">
        <ele>267.5</ele>
        <time>2022-03-06T14:39:45Z</time>
      </trkpt>
      <trkpt lat="49.14462" lon="7.07746">
        <ele>267.4</ele>
        <time>2022-03-06T14:40:03Z</time>
      </trkpt>
      <trkpt lat="49.14471" lon="7.07747">
        <ele>267.4</ele>
        <time>2022-03-06T14:40:08Z</time>
      </trkpt>
      <trkpt lat="49.1448" lon="7.07745">
        <ele>267.3</ele>
        <time>2022-03-06T14:40:12Z</time>
      </trkpt>
      <trkpt lat="49.14488" lon="7.07738">
        <ele>267.1</ele>
        <time>2022-03-06T14:40:18Z</time>
      </trkpt>
      <trkpt lat="49.14498" lon="7.07741">
        <ele>266.9</ele>
        <time>2022-03-06T14:40:22Z</time>
      </trkpt>
      <trkpt lat="49.14507" lon="7.07743">
        <ele>266.6</ele>
        <time>2022-03-06T14:40:30Z</time>
      </trkpt>
      <trkpt lat="49.14519" lon="7.07745">
        <ele>266.3</ele>
        <time>2022-03-06T14:40:37Z</time>
      </trkpt>
      <trkpt lat="49.14527" lon="7.07738">
        <ele>266</ele>
        <time>2022-03-06T14:40:59Z</time>
      </trkpt>
      <trkpt lat="49.14537" lon="7.07736">
        <ele>265.7</ele>
        <time>2022-03-06T14:41:10Z</time>
      </trkpt>
      <trkpt lat="49.14546" lon="7.07736">
        <ele>265.5</ele>
        <time>2022-03-06T14:41:16Z</time>
      </trkpt>
      <trkpt lat="49.14556" lon="7.07734">
        <ele>265.3</ele>
        <time>2022-03-06T14:41:42Z</time>
      </trkpt>
      <trkpt lat="49.14565" lon="7.07734">
        <ele>265.1</ele>
        <time>2022-03-06T14:41:57Z</time>
      </trkpt>
      <trkpt lat="49.14575" lon="7.07734">
        <ele>264.9</ele>
        <time>2022-03-06T14:42:03Z</time>
      </trkpt>
      <trkpt lat="49.14585" lon="7.07735">
        <ele>264.8</ele>
        <time>2022-03-06T14:42:08Z</time>
      </trkpt>
      <trkpt lat="49.14593" lon="7.0773">
        <ele>264.8</ele>
        <time>2022-03-06T14:42:17Z</time>
      </trkpt>
      <trkpt lat="49.14603" lon="7.07728">
        <ele>264.8</ele>
        <time>2022-03-06T14:42:22Z</time>
      </trkpt>
      <trkpt lat="49.14611" lon="7.07722">
        <ele>264.8</ele>
        <time>2022-03-06T14:42:28Z</time>
      </trkpt>
      <trkpt lat="49.14621" lon="7.07723">
        <ele>264.9</ele>
        <time>2022-03-06T14:42:37Z</time>
      </trkpt>
      <trkpt lat="49.14631" lon="7.07729">
        <ele>265.1</ele>
        <time>2022-03-06T14:42:45Z</time>
      </trkpt>
      <trkpt lat="49.1464" lon="7.07725">
        <ele>265.2</ele>
        <time>2022-03-06T14:42:50Z</time>
      </trkpt>
      <trkpt lat="49.14642" lon="7.07719">
        <ele>265.4</ele>
        <time>2022-03-06T14:42:56Z</time>
      </trkpt>
      <trkpt lat="49.14642" lon="7.0772">
        <ele>265.4</ele>
        <time>2022-03-06T14:42:57Z</time>
      </trkpt>
      <trkpt lat="49.14653" lon="7.07719">
        <ele>265.7</ele>
        <time>2022-03-06T14:43:03Z</time>
      </trkpt>
      <trkpt lat="49.14662" lon="7.07717">
        <ele>266.1</ele>
        <time>2022-03-06T14:43:15Z</time>
      </trkpt>
      <trkpt lat="49.14671" lon="7.07713">
        <ele>266.5</ele>
        <time>2022-03-06T14:43:23Z</time>
      </trkpt>
      <trkpt lat="49.14681" lon="7.07705">
        <ele>266.8</ele>
        <time>2022-03-06T14:43:30Z</time>
      </trkpt>
      <trkpt lat="49.14689" lon="7.07699">
        <ele>266.9</ele>
        <time>2022-03-06T14:43:35Z</time>
      </trkpt>
      <trkpt lat="49.14698" lon="7.07696">
        <ele>266.9</ele>
        <time>2022-03-06T14:43:53Z</time>
      </trkpt>
      <trkpt lat="49.14709" lon="7.0769">
        <ele>266.7</ele>
        <time>2022-03-06T14:43:58Z</time>
      </trkpt>
      <trkpt lat="49.14732" lon="7.07676">
        <ele>265.9</ele>
        <time>2022-03-06T14:44:17Z</time>
      </trkpt>
      <trkpt lat="49.1474" lon="7.07667">
        <ele>265.5</ele>
        <time>2022-03-06T14:44:21Z</time>
      </trkpt>
      <trkpt lat="49.1475" lon="7.07664">
        <ele>265.2</ele>
        <time>2022-03-06T14:44:23Z</time>
      </trkpt>
      <trkpt lat="49.14761" lon="7.07662">
        <ele>264.8</ele>
        <time>2022-03-06T14:44:25Z</time>
      </trkpt>
      <trkpt lat="49.1477" lon="7.07665">
        <ele>264.5</ele>
        <time>2022-03-06T14:44:30Z</time>
      </trkpt>
      <trkpt lat="49.14779" lon="7.07658">
        <ele>264.2</ele>
        <time>2022-03-06T14:44:46Z</time>
      </trkpt>
      <trkpt lat="49.14787" lon="7.0765">
        <ele>264</ele>
        <time>2022-03-06T14:44:53Z</time>
      </trkpt>
      <trkpt lat="49.14798" lon="7.0765">
        <ele>263.7</ele>
        <time>2022-03-06T14:44:59Z</time>
      </trkpt>
      <trkpt lat="49.14809" lon="7.07652">
        <ele>263.4</ele>
        <time>2022-03-06T14:45:06Z</time>
      </trkpt>
      <trkpt lat="49.14815" lon="7.07641">
        <ele>263.1</ele>
        <time>2022-03-06T14:45:23Z</time>
      </trkpt>
      <trkpt lat="49.14825" lon="7.07639">
        <ele>262.7</ele>
        <time>2022-03-06T14:45:33Z</time>
      </trkpt>
      <trkpt lat="49.14834" lon="7.07635">
        <ele>262.2</ele>
        <time>2022-03-06T14:45:45Z</time>
      </trkpt>
      <trkpt lat="49.14843" lon="7.07629">
        <ele>261.6</ele>
        <time>2022-03-06T14:45:58Z</time>
      </trkpt>
      <trkpt lat="49.14856" lon="7.07617">
        <ele>260.7</ele>
        <time>2022-03-06T14:46:00Z</time>
      </trkpt>
      <trkpt lat="49.14866" lon="7.07615">
        <ele>260.3</ele>
        <time>2022-03-06T14:46:10Z</time>
      </trkpt>
      <trkpt lat="49.14876" lon="7.07611">
        <ele>260.1</ele>
        <time>2022-03-06T14:46:16Z</time>
      </trkpt>
      <trkpt lat="49.14884" lon="7.07603">
        <ele>260.1</ele>
        <time>2022-03-06T14:46:20Z</time>
      </trkpt>
      <trkpt lat="49.14894" lon="7.07597">
        <ele>260.3</ele>
        <time>2022-03-06T14:46:25Z</time>
      </trkpt>
      <trkpt lat="49.14902" lon="7.07589">
        <ele>260.6</ele>
        <time>2022-03-06T14:46:37Z</time>
      </trkpt>
      <trkpt lat="49.14911" lon="7.07592">
        <ele>261</ele>
        <time>2022-03-06T14:46:41Z</time>
      </trkpt>
      <trkpt lat="49.1492" lon="7.07591">
        <ele>261.3</ele>
        <time>2022-03-06T14:46:49Z</time>
      </trkpt>
      <trkpt lat="49.1493" lon="7.07591">
        <ele>261.7</ele>
        <time>2022-03-06T14:46:57Z</time>
      </trkpt>
      <trkpt lat="49.14937" lon="7.0758">
        <ele>262</ele>
        <time>2022-03-06T14:47:17Z</time>
      </trkpt>
      <trkpt lat="49.14948" lon="7.07577">
        <ele>262.5</ele>
        <time>2022-03-06T14:47:23Z</time>
      </trkpt>
      <trkpt lat="49.14958" lon="7.07571">
        <ele>263</ele>
        <time>2022-03-06T14:47:28Z</time>
      </trkpt>
      <trkpt lat="49.14966" lon="7.07559">
        <ele>263.6</ele>
        <time>2022-03-06T14:47:37Z</time>
      </trkpt>
      <trkpt lat="49.14974" lon="7.07547">
        <ele>264.2</ele>
        <time>2022-03-06T14:47:40Z</time>
      </trkpt>
      <trkpt lat="49.14982" lon="7.07537">
        <ele>264.8</ele>
        <time>2022-03-06T14:47:44Z</time>
      </trkpt>
      <trkpt lat="49.14991" lon="7.0753">
        <ele>265.4</ele>
        <time>2022-03-06T14:47:49Z</time>
      </trkpt>
      <trkpt lat="49.14997" lon="7.07519">
        <ele>265.9</ele>
        <time>2022-03-06T14:47:56Z</time>
      </trkpt>
      <trkpt lat="49.15004" lon="7.07509">
        <ele>266.5</ele>
        <time>2022-03-06T14:48:12Z</time>
      </trkpt>
      <trkpt lat="49.1501" lon="7.07492">
        <ele>267.2</ele>
        <time>2022-03-06T14:48:22Z</time>
      </trkpt>
      <trkpt lat="49.15019" lon="7.0748">
        <ele>267.9</ele>
        <time>2022-03-06T14:48:31Z</time>
      </trkpt>
      <trkpt lat="49.15029" lon="7.07472">
        <ele>268.5</ele>
        <time>2022-03-06T14:48:40Z</time>
      </trkpt>
      <trkpt lat="49.15036" lon="7.07461">
        <ele>269</ele>
        <time>2022-03-06T14:48:47Z</time>
      </trkpt>
      <trkpt lat="49.15037" lon="7.07447">
        <ele>269.6</ele>
        <time>2022-03-06T14:48:58Z</time>
      </trkpt>
      <trkpt lat="49.15046" lon="7.07439">
        <ele>270.1</ele>
        <time>2022-03-06T14:49:05Z</time>
      </trkpt>
      <trkpt lat="49.15055" lon="7.07435">
        <ele>270.6</ele>
        <time>2022-03-06T14:49:11Z</time>
      </trkpt>
      <trkpt lat="49.15067" lon="7.07424">
        <ele>271.3</ele>
        <time>2022-03-06T14:49:18Z</time>
      </trkpt>
      <trkpt lat="49.15067" lon="7.07409">
        <ele>271.8</ele>
        <time>2022-03-06T14:49:27Z</time>
      </trkpt>
      <trkpt lat="49.15056" lon="7.07407">
        <ele>272.4</ele>
        <time>2022-03-06T14:49:33Z</time>
      </trkpt>
      <trkpt lat="49.15061" lon="7.07393">
        <ele>272.9</ele>
        <time>2022-03-06T14:49:44Z</time>
      </trkpt>
      <trkpt lat="49.15059" lon="7.0738">
        <ele>273.4</ele>
        <time>2022-03-06T14:49:56Z</time>
      </trkpt>
      <trkpt lat="49.15067" lon="7.07373">
        <ele>273.9</ele>
        <time>2022-03-06T14:50:02Z</time>
      </trkpt>
      <trkpt lat="49.15076" lon="7.07368">
        <ele>274.3</ele>
        <time>2022-03-06T14:50:07Z</time>
      </trkpt>
      <trkpt lat="49.15084" lon="7.07358">
        <ele>274.6</ele>
        <time>2022-03-06T14:50:12Z</time>
      </trkpt>
      <trkpt lat="49.15091" lon="7.07348">
        <ele>274.9</ele>
        <time>2022-03-06T14:50:15Z</time>
      </trkpt>
      <trkpt lat="49.15096" lon="7.07327">
        <ele>275.2</ele>
        <time>2022-03-06T14:50:29Z</time>
      </trkpt>
      <trkpt lat="49.15104" lon="7.07331">
        <ele>272.1</ele>
        <time>2022-03-06T14:50:38Z</time>
      </trkpt>
      <trkpt lat="49.151" lon="7.07345">
        <ele>270.9</ele>
        <time>2022-03-06T14:50:45Z</time>
      </trkpt>
      <trkpt lat="49.1509" lon="7.07346">
        <ele>269.7</ele>
        <time>2022-03-06T14:50:53Z</time>
      </trkpt>
      <trkpt lat="49.15081" lon="7.07349">
        <ele>268.5</ele>
        <time>2022-03-06T14:51:11Z</time>
      </trkpt>
      <trkpt lat="49.15081" lon="7.07363">
        <ele>267.3</ele>
        <time>2022-03-06T14:51:36Z</time>
      </trkpt>
      <trkpt lat="49.15078" lon="7.07379">
        <ele>265.9</ele>
        <time>2022-03-06T14:51:48Z</time>
      </trkpt>
      <trkpt lat="49.15086" lon="7.07396">
        <ele>264.2</ele>
        <time>2022-03-06T14:51:51Z</time>
      </trkpt>
      <trkpt lat="49.15087" lon="7.07411">
        <ele>263</ele>
        <time>2022-03-06T14:51:57Z</time>
      </trkpt>
      <trkpt lat="49.1509" lon="7.07425">
        <ele>262</ele>
        <time>2022-03-06T14:52:06Z</time>
      </trkpt>
      <trkpt lat="49.15095" lon="7.07443">
        <ele>259.9</ele>
        <time>2022-03-06T14:52:13Z</time>
      </trkpt>
      <trkpt lat="49.15102" lon="7.07455">
        <ele>258.4</ele>
        <time>2022-03-06T14:52:21Z</time>
      </trkpt>
      <trkpt lat="49.15108" lon="7.07466">
        <ele>256.9</ele>
        <time>2022-03-06T14:52:28Z</time>
      </trkpt>
      <trkpt lat="49.15109" lon="7.07481">
        <ele>255.4</ele>
        <time>2022-03-06T14:52:35Z</time>
      </trkpt>
      <trkpt lat="49.15109" lon="7.07496">
        <ele>254</ele>
        <time>2022-03-06T14:52:43Z</time>
      </trkpt>
      <trkpt lat="49.15113" lon="7.07512">
        <ele>252.2</ele>
        <time>2022-03-06T14:52:49Z</time>
      </trkpt>
      <trkpt lat="49.15115" lon="7.07528">
        <ele>251.5</ele>
        <time>2022-03-06T14:52:54Z</time>
      </trkpt>
      <trkpt lat="49.15118" lon="7.07541">
        <ele>249.7</ele>
        <time>2022-03-06T14:52:59Z</time>
      </trkpt>
      <trkpt lat="49.15119" lon="7.07556">
        <ele>247.6</ele>
        <time>2022-03-06T14:53:04Z</time>
      </trkpt>
      <trkpt lat="49.15121" lon="7.07571">
        <ele>246.7</ele>
        <time>2022-03-06T14:53:09Z</time>
      </trkpt>
      <trkpt lat="49.15122" lon="7.07584">
        <ele>245.2</ele>
        <time>2022-03-06T14:53:15Z</time>
      </trkpt>
      <trkpt lat="49.15126" lon="7.07599">
        <ele>243.1</ele>
        <time>2022-03-06T14:53:21Z</time>
      </trkpt>
      <trkpt lat="49.15129" lon="7.07613">
        <ele>241.3</ele>
        <time>2022-03-06T14:53:29Z</time>
      </trkpt>
      <trkpt lat="49.15132" lon="7.07627">
        <ele>239.3</ele>
        <time>2022-03-06T14:53:37Z</time>
      </trkpt>
      <trkpt lat="49.15135" lon="7.07641">
        <ele>237.3</ele>
        <time>2022-03-06T14:53:45Z</time>
      </trkpt>
      <trkpt lat="49.15136" lon="7.07657">
        <ele>235.2</ele>
        <time>2022-03-06T14:53:56Z</time>
      </trkpt>
      <trkpt lat="49.15133" lon="7.07673">
        <ele>233.3</ele>
        <time>2022-03-06T14:54:05Z</time>
      </trkpt>
      <trkpt lat="49.1513" lon="7.07687">
        <ele>232.6</ele>
        <time>2022-03-06T14:54:12Z</time>
      </trkpt>
      <trkpt lat="49.15128" lon="7.077">
        <ele>231.5</ele>
        <time>2022-03-06T14:54:21Z</time>
      </trkpt>
      <trkpt lat="49.15127" lon="7.07714">
        <ele>229.7</ele>
        <time>2022-03-06T14:54:28Z</time>
      </trkpt>
      <trkpt lat="49.15125" lon="7.07728">
        <ele>227.9</ele>
        <time>2022-03-06T14:54:35Z</time>
      </trkpt>
      <trkpt lat="49.15123" lon="7.07744">
        <ele>225.9</ele>
        <time>2022-03-06T14:54:42Z</time>
      </trkpt>
      <trkpt lat="49.15122" lon="7.07757">
        <ele>224.3</ele>
        <time>2022-03-06T14:54:51Z</time>
      </trkpt>
      <trkpt lat="49.15121" lon="7.07772">
        <ele>222.7</ele>
        <time>2022-03-06T14:55:05Z</time>
      </trkpt>
      <trkpt lat="49.15118" lon="7.07785">
        <ele>221.2</ele>
        <time>2022-03-06T14:55:14Z</time>
      </trkpt>
      <trkpt lat="49.15116" lon="7.078">
        <ele>219.6</ele>
        <time>2022-03-06T14:55:22Z</time>
      </trkpt>
      <trkpt lat="49.15116" lon="7.07815">
        <ele>218.5</ele>
        <time>2022-03-06T14:55:32Z</time>
      </trkpt>
      <trkpt lat="49.15115" lon="7.07829">
        <ele>217.6</ele>
        <time>2022-03-06T14:55:39Z</time>
      </trkpt>
      <trkpt lat="49.15117" lon="7.07843">
        <ele>216.8</ele>
        <time>2022-03-06T14:55:46Z</time>
      </trkpt>
      <trkpt lat="49.15119" lon="7.07858">
        <ele>215.7</ele>
        <time>2022-03-06T14:55:54Z</time>
      </trkpt>
      <trkpt lat="49.15125" lon="7.07869">
        <ele>214.8</ele>
        <time>2022-03-06T14:56:04Z</time>
      </trkpt>
      <trkpt lat="49.15129" lon="7.07883">
        <ele>213.9</ele>
        <time>2022-03-06T14:56:12Z</time>
      </trkpt>
      <trkpt lat="49.15134" lon="7.07896">
        <ele>213</ele>
        <time>2022-03-06T14:56:21Z</time>
      </trkpt>
      <trkpt lat="49.15139" lon="7.07908">
        <ele>212.2</ele>
        <time>2022-03-06T14:56:29Z</time>
      </trkpt>
      <trkpt lat="49.15145" lon="7.0792">
        <ele>211.3</ele>
        <time>2022-03-06T14:56:39Z</time>
      </trkpt>
      <trkpt lat="49.15148" lon="7.07933">
        <ele>210.5</ele>
        <time>2022-03-06T14:56:47Z</time>
      </trkpt>
      <trkpt lat="49.15153" lon="7.07946">
        <ele>209.7</ele>
        <time>2022-03-06T14:56:54Z</time>
      </trkpt>
      <trkpt lat="49.15159" lon="7.07956">
        <ele>208.9</ele>
        <time>2022-03-06T14:57:04Z</time>
      </trkpt>
      <trkpt lat="49.15165" lon="7.07969">
        <ele>208</ele>
        <time>2022-03-06T14:57:13Z</time>
      </trkpt>
      <trkpt lat="49.15169" lon="7.07981">
        <ele>207.2</ele>
        <time>2022-03-06T14:57:20Z</time>
      </trkpt>
      <trkpt lat="49.15174" lon="7.07994">
        <ele>206.4</ele>
        <time>2022-03-06T14:57:31Z</time>
      </trkpt>
      <trkpt lat="49.1518" lon="7.08006">
        <ele>205.6</ele>
        <time>2022-03-06T14:57:40Z</time>
      </trkpt>
      <trkpt lat="49.15185" lon="7.08019">
        <ele>204.8</ele>
        <time>2022-03-06T14:57:48Z</time>
      </trkpt>
      <trkpt lat="49.15188" lon="7.08032">
        <ele>204.1</ele>
        <time>2022-03-06T14:57:57Z</time>
      </trkpt>
      <trkpt lat="49.1519" lon="7.08046">
        <ele>203.6</ele>
        <time>2022-03-06T14:58:05Z</time>
      </trkpt>
      <trkpt lat="49.15187" lon="7.0806">
        <ele>203.1</ele>
        <time>2022-03-06T14:58:13Z</time>
      </trkpt>
      <trkpt lat="49.15183" lon="7.08073">
        <ele>202.7</ele>
        <time>2022-03-06T14:58:19Z</time>
      </trkpt>
      <trkpt lat="49.1518" lon="7.08088">
        <ele>202.4</ele>
        <time>2022-03-06T14:58:26Z</time>
      </trkpt>
      <trkpt lat="49.15176" lon="7.08101">
        <ele>202.1</ele>
        <time>2022-03-06T14:58:32Z</time>
      </trkpt>
      <trkpt lat="49.15167" lon="7.08098">
        <ele>201.8</ele>
        <time>2022-03-06T14:58:41Z</time>
      </trkpt>
      <trkpt lat="49.15159" lon="7.08105">
        <ele>201.2</ele>
        <time>2022-03-06T14:59:03Z</time>
      </trkpt>
      <trkpt lat="49.15154" lon="7.08118">
        <ele>200.6</ele>
        <time>2022-03-06T14:59:13Z</time>
      </trkpt>
      <trkpt lat="49.15145" lon="7.08127">
        <ele>200.2</ele>
        <time>2022-03-06T14:59:19Z</time>
      </trkpt>
      <trkpt lat="49.15137" lon="7.08133">
        <ele>200.1</ele>
        <time>2022-03-06T14:59:28Z</time>
      </trkpt>
      <trkpt lat="49.15137" lon="7.08119">
        <ele>200</ele>
        <time>2022-03-06T14:59:41Z</time>
      </trkpt>
      <trkpt lat="49.15133" lon="7.08101">
        <ele>199.9</ele>
        <time>2022-03-06T14:59:54Z</time>
      </trkpt>
      <trkpt lat="49.15113" lon="7.08086">
        <ele>200</ele>
        <time>2022-03-06T15:00:08Z</time>
      </trkpt>
      <trkpt lat="49.15105" lon="7.08079">
        <ele>200</ele>
        <time>2022-03-06T15:00:12Z</time>
      </trkpt>
      <trkpt lat="49.15098" lon="7.08061">
        <ele>200</ele>
        <time>2022-03-06T15:00:20Z</time>
      </trkpt>
      <trkpt lat="49.1509" lon="7.08051">
        <ele>200.1</ele>
        <time>2022-03-06T15:00:26Z</time>
      </trkpt>
      <trkpt lat="49.15081" lon="7.08038">
        <ele>200.3</ele>
        <time>2022-03-06T15:00:36Z</time>
      </trkpt>
      <trkpt lat="49.15073" lon="7.08029">
        <ele>200.5</ele>
        <time>2022-03-06T15:00:41Z</time>
      </trkpt>
      <trkpt lat="49.15061" lon="7.08027">
        <ele>200.9</ele>
        <time>2022-03-06T15:00:50Z</time>
      </trkpt>
      <trkpt lat="49.1505" lon="7.08026">
        <ele>201.3</ele>
        <time>2022-03-06T15:00:55Z</time>
      </trkpt>
      <trkpt lat="49.15042" lon="7.08015">
        <ele>201.3</ele>
        <time>2022-03-06T15:01:16Z</time>
      </trkpt>
      <trkpt lat="49.15033" lon="7.08011">
        <ele>201.2</ele>
        <time>2022-03-06T15:01:20Z</time>
      </trkpt>
      <trkpt lat="49.15022" lon="7.08018">
        <ele>201.1</ele>
        <time>2022-03-06T15:01:23Z</time>
      </trkpt>
      <trkpt lat="49.15012" lon="7.08018">
        <ele>201.1</ele>
        <time>2022-03-06T15:01:28Z</time>
      </trkpt>
      <trkpt lat="49.15003" lon="7.0802">
        <ele>201.2</ele>
        <time>2022-03-06T15:01:38Z</time>
      </trkpt>
      <trkpt lat="49.14994" lon="7.08018">
        <ele>201.2</ele>
        <time>2022-03-06T15:01:47Z</time>
      </trkpt>
      <trkpt lat="49.14984" lon="7.08016">
        <ele>201.2</ele>
        <time>2022-03-06T15:02:00Z</time>
      </trkpt>
      <trkpt lat="49.14974" lon="7.08016">
        <ele>201.2</ele>
        <time>2022-03-06T15:02:08Z</time>
      </trkpt>
      <trkpt lat="49.14965" lon="7.08013">
        <ele>201.2</ele>
        <time>2022-03-06T15:02:15Z</time>
      </trkpt>
      <trkpt lat="49.14955" lon="7.0801">
        <ele>201.3</ele>
        <time>2022-03-06T15:02:25Z</time>
      </trkpt>
      <trkpt lat="49.14945" lon="7.08007">
        <ele>201.3</ele>
        <time>2022-03-06T15:02:34Z</time>
      </trkpt>
      <trkpt lat="49.14936" lon="7.08005">
        <ele>201.4</ele>
        <time>2022-03-06T15:02:42Z</time>
      </trkpt>
      <trkpt lat="49.14928" lon="7.08">
        <ele>201.4</ele>
        <time>2022-03-06T15:02:50Z</time>
      </trkpt>
      <trkpt lat="49.14918" lon="7.07996">
        <ele>201.5</ele>
        <time>2022-03-06T15:02:57Z</time>
      </trkpt>
      <trkpt lat="49.1491" lon="7.08005">
        <ele>201.6</ele>
        <time>2022-03-06T15:03:13Z</time>
      </trkpt>
      <trkpt lat="49.14908" lon="7.08019">
        <ele>201.9</ele>
        <time>2022-03-06T15:03:22Z</time>
      </trkpt>
      <trkpt lat="49.14905" lon="7.08034">
        <ele>202</ele>
        <time>2022-03-06T15:03:30Z</time>
      </trkpt>
      <trkpt lat="49.14902" lon="7.08047">
        <ele>201.9</ele>
        <time>2022-03-06T15:03:38Z</time>
      </trkpt>
      <trkpt lat="49.14902" lon="7.08053">
        <ele>201.9</ele>
        <time>2022-03-06T15:03:46Z</time>
      </trkpt>
      <trkpt lat="49.14902" lon="7.08054">
        <ele>201.8</ele>
        <time>2022-03-06T15:03:48Z</time>
      </trkpt>
      <trkpt lat="49.14899" lon="7.08069">
        <ele>201.5</ele>
        <time>2022-03-06T15:03:59Z</time>
      </trkpt>
      <trkpt lat="49.14896" lon="7.08084">
        <ele>201.2</ele>
        <time>2022-03-06T15:04:05Z</time>
      </trkpt>
      <trkpt lat="49.14896" lon="7.0809">
        <ele>201</ele>
        <time>2022-03-06T15:04:15Z</time>
      </trkpt>
      <trkpt lat="49.14896" lon="7.0809">
        <ele>201</ele>
        <time>2022-03-06T15:04:16Z</time>
      </trkpt>
      <trkpt lat="49.14893" lon="7.08105">
        <ele>200.7</ele>
        <time>2022-03-06T15:04:24Z</time>
      </trkpt>
      <trkpt lat="49.14891" lon="7.0812">
        <ele>200.4</ele>
        <time>2022-03-06T15:04:30Z</time>
      </trkpt>
      <trkpt lat="49.14886" lon="7.08132">
        <ele>200.2</ele>
        <time>2022-03-06T15:04:36Z</time>
      </trkpt>
      <trkpt lat="49.14883" lon="7.08146">
        <ele>200</ele>
        <time>2022-03-06T15:04:44Z</time>
      </trkpt>
      <trkpt lat="49.14884" lon="7.0816">
        <ele>199.9</ele>
        <time>2022-03-06T15:04:54Z</time>
      </trkpt>
      <trkpt lat="49.14883" lon="7.08177">
        <ele>199.8</ele>
        <time>2022-03-06T15:05:04Z</time>
      </trkpt>
      <trkpt lat="49.14882" lon="7.08192">
        <ele>199.8</ele>
        <time>2022-03-06T15:05:08Z</time>
      </trkpt>
      <trkpt lat="49.1488" lon="7.08208">
        <ele>199.9</ele>
        <time>2022-03-06T15:05:19Z</time>
      </trkpt>
      <trkpt lat="49.14877" lon="7.08222">
        <ele>199.9</ele>
        <time>2022-03-06T15:05:27Z</time>
      </trkpt>
      <trkpt lat="49.14879" lon="7.08236">
        <ele>200</ele>
        <time>2022-03-06T15:05:35Z</time>
      </trkpt>
      <trkpt lat="49.14886" lon="7.08246">
        <ele>200</ele>
        <time>2022-03-06T15:05:44Z</time>
      </trkpt>
      <trkpt lat="49.14892" lon="7.08256">
        <ele>200</ele>
        <time>2022-03-06T15:05:53Z</time>
      </trkpt>
      <trkpt lat="49.14899" lon="7.08266">
        <ele>200</ele>
        <time>2022-03-06T15:06:03Z</time>
      </trkpt>
      <trkpt lat="49.14907" lon="7.08272">
        <ele>200</ele>
        <time>2022-03-06T15:06:11Z</time>
      </trkpt>
      <trkpt lat="49.1491" lon="7.08286">
        <ele>200</ele>
        <time>2022-03-06T15:06:21Z</time>
      </trkpt>
      <trkpt lat="49.1491" lon="7.08301">
        <ele>200</ele>
        <time>2022-03-06T15:06:27Z</time>
      </trkpt>
      <trkpt lat="49.14911" lon="7.08316">
        <ele>200</ele>
        <time>2022-03-06T15:06:31Z</time>
      </trkpt>
      <trkpt lat="49.14912" lon="7.0833">
        <ele>200</ele>
        <time>2022-03-06T15:06:34Z</time>
      </trkpt>
      <trkpt lat="49.14913" lon="7.08343">
        <ele>200</ele>
        <time>2022-03-06T15:06:40Z</time>
      </trkpt>
      <trkpt lat="49.14918" lon="7.08357">
        <ele>200</ele>
        <time>2022-03-06T15:06:49Z</time>
      </trkpt>
      <trkpt lat="49.14919" lon="7.08357">
        <ele>200</ele>
        <time>2022-03-06T15:06:54Z</time>
      </trkpt>
      <trkpt lat="49.14919" lon="7.08358">
        <ele>200</ele>
        <time>2022-03-06T15:06:55Z</time>
      </trkpt>
      <trkpt lat="49.14923" lon="7.08371">
        <ele>200</ele>
        <time>2022-03-06T15:07:06Z</time>
      </trkpt>
      <trkpt lat="49.14928" lon="7.08382">
        <ele>200</ele>
        <time>2022-03-06T15:07:15Z</time>
      </trkpt>
      <trkpt lat="49.14935" lon="7.08393">
        <ele>200</ele>
        <time>2022-03-06T15:07:25Z</time>
      </trkpt>
      <trkpt lat="49.1494" lon="7.08405">
        <ele>200</ele>
        <time>2022-03-06T15:07:33Z</time>
      </trkpt>
      <trkpt lat="49.14945" lon="7.08418">
        <ele>199.9</ele>
        <time>2022-03-06T15:07:40Z</time>
      </trkpt>
      <trkpt lat="49.1495" lon="7.0843">
        <ele>199.9</ele>
        <time>2022-03-06T15:07:48Z</time>
      </trkpt>
      <trkpt lat="49.14954" lon="7.08443">
        <ele>199.9</ele>
        <time>2022-03-06T15:07:55Z</time>
      </trkpt>
      <trkpt lat="49.14958" lon="7.08457">
        <ele>199.9</ele>
        <time>2022-03-06T15:08:02Z</time>
      </trkpt>
      <trkpt lat="49.14964" lon="7.08467">
        <ele>199.9</ele>
        <time>2022-03-06T15:08:09Z</time>
      </trkpt>
      <trkpt lat="49.14964" lon="7.08481">
        <ele>199.9</ele>
        <time>2022-03-06T15:08:17Z</time>
      </trkpt>
      <trkpt lat="49.14963" lon="7.08496">
        <ele>199.8</ele>
        <time>2022-03-06T15:08:27Z</time>
      </trkpt>
      <trkpt lat="49.14968" lon="7.08508">
        <ele>199.7</ele>
        <time>2022-03-06T15:08:35Z</time>
      </trkpt>
      <trkpt lat="49.14975" lon="7.08521">
        <ele>199.6</ele>
        <time>2022-03-06T15:08:42Z</time>
      </trkpt>
      <trkpt lat="49.14978" lon="7.08534">
        <ele>199.5</ele>
        <time>2022-03-06T15:08:47Z</time>
      </trkpt>
      <trkpt lat="49.14982" lon="7.08547">
        <ele>199.4</ele>
        <time>2022-03-06T15:08:55Z</time>
      </trkpt>
      <trkpt lat="49.14987" lon="7.0856">
        <ele>199.4</ele>
        <time>2022-03-06T15:09:03Z</time>
      </trkpt>
      <trkpt lat="49.14992" lon="7.08572">
        <ele>199.4</ele>
        <time>2022-03-06T15:09:12Z</time>
      </trkpt>
      <trkpt lat="49.14996" lon="7.08585">
        <ele>199.4</ele>
        <time>2022-03-06T15:09:22Z</time>
      </trkpt>
      <trkpt lat="49.15" lon="7.08599">
        <ele>199.4</ele>
        <time>2022-03-06T15:09:29Z</time>
      </trkpt>
      <trkpt lat="49.15004" lon="7.08611">
        <ele>199.5</ele>
        <time>2022-03-06T15:09:39Z</time>
      </trkpt>
      <trkpt lat="49.15011" lon="7.08621">
        <ele>199.6</ele>
        <time>2022-03-06T15:09:48Z</time>
      </trkpt>
      <trkpt lat="49.15017" lon="7.08634">
        <ele>199.7</ele>
        <time>2022-03-06T15:09:56Z</time>
      </trkpt>
      <trkpt lat="49.15021" lon="7.08648">
        <ele>199.8</ele>
        <time>2022-03-06T15:10:03Z</time>
      </trkpt>
      <trkpt lat="49.15026" lon="7.08661">
        <ele>199.8</ele>
        <time>2022-03-06T15:10:09Z</time>
      </trkpt>
      <trkpt lat="49.1503" lon="7.08675">
        <ele>199.9</ele>
        <time>2022-03-06T15:10:16Z</time>
      </trkpt>
      <trkpt lat="49.15033" lon="7.0869">
        <ele>199.9</ele>
        <time>2022-03-06T15:10:23Z</time>
      </trkpt>
      <trkpt lat="49.15037" lon="7.08703">
        <ele>199.9</ele>
        <time>2022-03-06T15:10:33Z</time>
      </trkpt>
      <trkpt lat="49.15038" lon="7.08704">
        <ele>199.9</ele>
        <time>2022-03-06T15:10:34Z</time>
      </trkpt>
      <trkpt lat="49.15044" lon="7.08714">
        <ele>200</ele>
        <time>2022-03-06T15:10:43Z</time>
      </trkpt>
      <trkpt lat="49.15049" lon="7.08727">
        <ele>200</ele>
        <time>2022-03-06T15:10:51Z</time>
      </trkpt>
      <trkpt lat="49.15056" lon="7.08737">
        <ele>200.1</ele>
        <time>2022-03-06T15:11:00Z</time>
      </trkpt>
      <trkpt lat="49.15059" lon="7.08753">
        <ele>200.1</ele>
        <time>2022-03-06T15:11:08Z</time>
      </trkpt>
      <trkpt lat="49.15061" lon="7.08768">
        <ele>200.2</ele>
        <time>2022-03-06T15:11:14Z</time>
      </trkpt>
      <trkpt lat="49.15065" lon="7.0878">
        <ele>200.2</ele>
        <time>2022-03-06T15:11:24Z</time>
      </trkpt>
      <trkpt lat="49.15067" lon="7.08795">
        <ele>200.2</ele>
        <time>2022-03-06T15:11:32Z</time>
      </trkpt>
      <trkpt lat="49.1507" lon="7.0881">
        <ele>200.3</ele>
        <time>2022-03-06T15:11:39Z</time>
      </trkpt>
      <trkpt lat="49.1507" lon="7.08825">
        <ele>200.4</ele>
        <time>2022-03-06T15:11:47Z</time>
      </trkpt>
      <trkpt lat="49.15068" lon="7.08834">
        <ele>200.4</ele>
        <time>2022-03-06T15:11:59Z</time>
      </trkpt>
      <trkpt lat="49.15069" lon="7.08834">
        <ele>200.4</ele>
        <time>2022-03-06T15:12:00Z</time>
      </trkpt>
      <trkpt lat="49.15071" lon="7.08848">
        <ele>200.5</ele>
        <time>2022-03-06T15:12:14Z</time>
      </trkpt>
      <trkpt lat="49.15076" lon="7.08861">
        <ele>200.5</ele>
        <time>2022-03-06T15:12:21Z</time>
      </trkpt>
      <trkpt lat="49.15078" lon="7.08875">
        <ele>200.5</ele>
        <time>2022-03-06T15:12:28Z</time>
      </trkpt>
      <trkpt lat="49.1508" lon="7.08889">
        <ele>200.6</ele>
        <time>2022-03-06T15:12:35Z</time>
      </trkpt>
      <trkpt lat="49.15082" lon="7.08903">
        <ele>200.6</ele>
        <time>2022-03-06T15:12:42Z</time>
      </trkpt>
      <trkpt lat="49.15086" lon="7.08916">
        <ele>200.6</ele>
        <time>2022-03-06T15:12:53Z</time>
      </trkpt>
      <trkpt lat="49.1509" lon="7.08929">
        <ele>200.7</ele>
        <time>2022-03-06T15:13:03Z</time>
      </trkpt>
      <trkpt lat="49.1509" lon="7.08945">
        <ele>200.7</ele>
        <time>2022-03-06T15:13:10Z</time>
      </trkpt>
      <trkpt lat="49.15089" lon="7.08959">
        <ele>200.7</ele>
        <time>2022-03-06T15:13:17Z</time>
      </trkpt>
      <trkpt lat="49.15094" lon="7.08972">
        <ele>200.7</ele>
        <time>2022-03-06T15:13:25Z</time>
      </trkpt>
      <trkpt lat="49.15096" lon="7.08986">
        <ele>200.6</ele>
        <time>2022-03-06T15:13:33Z</time>
      </trkpt>
      <trkpt lat="49.15099" lon="7.08999">
        <ele>200.5</ele>
        <time>2022-03-06T15:13:42Z</time>
      </trkpt>
      <trkpt lat="49.15102" lon="7.09015">
        <ele>200.5</ele>
        <time>2022-03-06T15:13:49Z</time>
      </trkpt>
      <trkpt lat="49.15103" lon="7.0903">
        <ele>200.4</ele>
        <time>2022-03-06T15:13:56Z</time>
      </trkpt>
      <trkpt lat="49.15106" lon="7.09044">
        <ele>200.4</ele>
        <time>2022-03-06T15:14:08Z</time>
      </trkpt>
      <trkpt lat="49.15108" lon="7.09058">
        <ele>200.4</ele>
        <time>2022-03-06T15:14:16Z</time>
      </trkpt>
      <trkpt lat="49.1511" lon="7.09073">
        <ele>200.4</ele>
        <time>2022-03-06T15:14:24Z</time>
      </trkpt>
      <trkpt lat="49.15112" lon="7.09086">
        <ele>200.4</ele>
        <time>2022-03-06T15:14:30Z</time>
      </trkpt>
      <trkpt lat="49.15114" lon="7.091">
        <ele>200.5</ele>
        <time>2022-03-06T15:14:36Z</time>
      </trkpt>
      <trkpt lat="49.15116" lon="7.09115">
        <ele>200.5</ele>
        <time>2022-03-06T15:14:45Z</time>
      </trkpt>
      <trkpt lat="49.15117" lon="7.09129">
        <ele>200.6</ele>
        <time>2022-03-06T15:14:52Z</time>
      </trkpt>
      <trkpt lat="49.15119" lon="7.09143">
        <ele>200.6</ele>
        <time>2022-03-06T15:14:59Z</time>
      </trkpt>
      <trkpt lat="49.15121" lon="7.09158">
        <ele>200.7</ele>
        <time>2022-03-06T15:15:04Z</time>
      </trkpt>
      <trkpt lat="49.15123" lon="7.09172">
        <ele>200.8</ele>
        <time>2022-03-06T15:15:12Z</time>
      </trkpt>
      <trkpt lat="49.15125" lon="7.09186">
        <ele>200.9</ele>
        <time>2022-03-06T15:15:20Z</time>
      </trkpt>
      <trkpt lat="49.15126" lon="7.092">
        <ele>201</ele>
        <time>2022-03-06T15:15:29Z</time>
      </trkpt>
      <trkpt lat="49.15129" lon="7.09213">
        <ele>201.2</ele>
        <time>2022-03-06T15:15:37Z</time>
      </trkpt>
      <trkpt lat="49.15132" lon="7.09227">
        <ele>201.3</ele>
        <time>2022-03-06T15:15:49Z</time>
      </trkpt>
      <trkpt lat="49.15133" lon="7.09241">
        <ele>201.5</ele>
        <time>2022-03-06T15:15:55Z</time>
      </trkpt>
      <trkpt lat="49.15138" lon="7.09254">
        <ele>201.7</ele>
        <time>2022-03-06T15:16:04Z</time>
      </trkpt>
      <trkpt lat="49.1514" lon="7.09268">
        <ele>201.8</ele>
        <time>2022-03-06T15:16:11Z</time>
      </trkpt>
      <trkpt lat="49.15144" lon="7.09281">
        <ele>201.9</ele>
        <time>2022-03-06T15:16:21Z</time>
      </trkpt>
      <trkpt lat="49.15146" lon="7.09298">
        <ele>201.9</ele>
        <time>2022-03-06T15:16:26Z</time>
      </trkpt>
      <trkpt lat="49.15149" lon="7.09311">
        <ele>202</ele>
        <time>2022-03-06T15:16:36Z</time>
      </trkpt>
      <trkpt lat="49.15152" lon="7.09325">
        <ele>202.1</ele>
        <time>2022-03-06T15:16:44Z</time>
      </trkpt>
      <trkpt lat="49.15155" lon="7.09341">
        <ele>202.2</ele>
        <time>2022-03-06T15:16:53Z</time>
      </trkpt>
      <trkpt lat="49.15158" lon="7.09356">
        <ele>202.2</ele>
        <time>2022-03-06T15:17:01Z</time>
      </trkpt>
      <trkpt lat="49.1516" lon="7.0937">
        <ele>202.3</ele>
        <time>2022-03-06T15:17:08Z</time>
      </trkpt>
      <trkpt lat="49.15162" lon="7.09385">
        <ele>202.4</ele>
        <time>2022-03-06T15:17:15Z</time>
      </trkpt>
      <trkpt lat="49.15164" lon="7.094">
        <ele>202.5</ele>
        <time>2022-03-06T15:17:21Z</time>
      </trkpt>
      <trkpt lat="49.15167" lon="7.09415">
        <ele>202.5</ele>
        <time>2022-03-06T15:17:30Z</time>
      </trkpt>
      <trkpt lat="49.1517" lon="7.09428">
        <ele>202.5</ele>
        <time>2022-03-06T15:17:38Z</time>
      </trkpt>
      <trkpt lat="49.1517" lon="7.09444">
        <ele>202.5</ele>
        <time>2022-03-06T15:17:48Z</time>
      </trkpt>
      <trkpt lat="49.15163" lon="7.09454">
        <ele>202.4</ele>
        <time>2022-03-06T15:17:56Z</time>
      </trkpt>
      <trkpt lat="49.15154" lon="7.0946">
        <ele>202.3</ele>
        <time>2022-03-06T15:18:04Z</time>
      </trkpt>
      <trkpt lat="49.15144" lon="7.09463">
        <ele>202.2</ele>
        <time>2022-03-06T15:18:13Z</time>
      </trkpt>
      <trkpt lat="49.15134" lon="7.09466">
        <ele>202.3</ele>
        <time>2022-03-06T15:18:20Z</time>
      </trkpt>
      <trkpt lat="49.15126" lon="7.09472">
        <ele>202.3</ele>
        <time>2022-03-06T15:18:30Z</time>
      </trkpt>
      <trkpt lat="49.15117" lon="7.09478">
        <ele>202.3</ele>
        <time>2022-03-06T15:18:36Z</time>
      </trkpt>
      <trkpt lat="49.15109" lon="7.09486">
        <ele>202.4</ele>
        <time>2022-03-06T15:18:42Z</time>
      </trkpt>
      <trkpt lat="49.15101" lon="7.09493">
        <ele>202.5</ele>
        <time>2022-03-06T15:18:48Z</time>
      </trkpt>
      <trkpt lat="49.15093" lon="7.09501">
        <ele>202.7</ele>
        <time>2022-03-06T15:18:53Z</time>
      </trkpt>
      <trkpt lat="49.15083" lon="7.09502">
        <ele>202.8</ele>
        <time>2022-03-06T15:19:04Z</time>
      </trkpt>
      <trkpt lat="49.15074" lon="7.09507">
        <ele>203.1</ele>
        <time>2022-03-06T15:19:10Z</time>
      </trkpt>
      <trkpt lat="49.15065" lon="7.09516">
        <ele>203.4</ele>
        <time>2022-03-06T15:19:20Z</time>
      </trkpt>
      <trkpt lat="49.15056" lon="7.09508">
        <ele>203.4</ele>
        <time>2022-03-06T15:19:41Z</time>
      </trkpt>
      <trkpt lat="49.15049" lon="7.09498">
        <ele>203.4</ele>
        <time>2022-03-06T15:19:45Z</time>
      </trkpt>
      <trkpt lat="49.1505" lon="7.09483">
        <ele>203.3</ele>
        <time>2022-03-06T15:19:50Z</time>
      </trkpt>
      <trkpt lat="49.1505" lon="7.09466">
        <ele>203.3</ele>
        <time>2022-03-06T15:19:56Z</time>
      </trkpt>
      <trkpt lat="49.15045" lon="7.09453">
        <ele>203.2</ele>
        <time>2022-03-06T15:20:07Z</time>
      </trkpt>
      <trkpt lat="49.15035" lon="7.09445">
        <ele>203.2</ele>
        <time>2022-03-06T15:20:22Z</time>
      </trkpt>
      <trkpt lat="49.14985" lon="7.09405">
        <ele>203.2</ele>
        <time>2022-03-06T15:20:48Z</time>
      </trkpt>
      <trkpt lat="49.14967" lon="7.09252">
        <ele>202.9</ele>
        <time>2022-03-06T15:22:14Z</time>
      </trkpt>
      <trkpt lat="49.1498" lon="7.09229">
        <ele>203.1</ele>
        <time>2022-03-06T15:22:24Z</time>
      </trkpt>
      <trkpt lat="49.14967" lon="7.09207">
        <ele>203.1</ele>
        <time>2022-03-06T15:22:35Z</time>
      </trkpt>
      <trkpt lat="49.14961" lon="7.09194">
        <ele>203.1</ele>
        <time>2022-03-06T15:22:43Z</time>
      </trkpt>
      <trkpt lat="49.1495" lon="7.09191">
        <ele>203.1</ele>
        <time>2022-03-06T15:22:46Z</time>
      </trkpt>
      <trkpt lat="49.14944" lon="7.0918">
        <ele>203</ele>
        <time>2022-03-06T15:22:51Z</time>
      </trkpt>
      <trkpt lat="49.14934" lon="7.09182">
        <ele>203</ele>
        <time>2022-03-06T15:22:54Z</time>
      </trkpt>
      <trkpt lat="49.14925" lon="7.09186">
        <ele>203</ele>
        <time>2022-03-06T15:22:57Z</time>
      </trkpt>
      <trkpt lat="49.14915" lon="7.09188">
        <ele>202.9</ele>
        <time>2022-03-06T15:23:02Z</time>
      </trkpt>
      <trkpt lat="49.14915" lon="7.09174">
        <ele>202.9</ele>
        <time>2022-03-06T15:23:07Z</time>
      </trkpt>
      <trkpt lat="49.14911" lon="7.09161">
        <ele>202.9</ele>
        <time>2022-03-06T15:23:17Z</time>
      </trkpt>
      <trkpt lat="49.1492" lon="7.09158">
        <ele>202.9</ele>
        <time>2022-03-06T15:23:19Z</time>
      </trkpt>
      <trkpt lat="49.14932" lon="7.09153">
        <ele>202.9</ele>
        <time>2022-03-06T15:23:21Z</time>
      </trkpt>
      <trkpt lat="49.14942" lon="7.0915">
        <ele>202.9</ele>
        <time>2022-03-06T15:23:22Z</time>
      </trkpt>
      <trkpt lat="49.14947" lon="7.09138">
        <ele>202.9</ele>
        <time>2022-03-06T15:23:26Z</time>
      </trkpt>
      <trkpt lat="49.14939" lon="7.09132">
        <ele>202.9</ele>
        <time>2022-03-06T15:23:32Z</time>
      </trkpt>
      <trkpt lat="49.14933" lon="7.0912">
        <ele>202.9</ele>
        <time>2022-03-06T15:23:38Z</time>
      </trkpt>
      <trkpt lat="49.14927" lon="7.09106">
        <ele>202.9</ele>
        <time>2022-03-06T15:23:44Z</time>
      </trkpt>
      <trkpt lat="49.14919" lon="7.09099">
        <ele>202.9</ele>
        <time>2022-03-06T15:23:49Z</time>
      </trkpt>
      <trkpt lat="49.14909" lon="7.091">
        <ele>202.9</ele>
        <time>2022-03-06T15:23:53Z</time>
      </trkpt>
      <trkpt lat="49.14899" lon="7.09094">
        <ele>202.9</ele>
        <time>2022-03-06T15:23:58Z</time>
      </trkpt>
      <trkpt lat="49.14898" lon="7.0908">
        <ele>202.8</ele>
        <time>2022-03-06T15:24:05Z</time>
      </trkpt>
      <trkpt lat="49.14891" lon="7.0907">
        <ele>202.8</ele>
        <time>2022-03-06T15:24:14Z</time>
      </trkpt>
      <trkpt lat="49.14891" lon="7.09055">
        <ele>202.7</ele>
        <time>2022-03-06T15:24:25Z</time>
      </trkpt>
      <trkpt lat="49.14882" lon="7.09054">
        <ele>202.6</ele>
        <time>2022-03-06T15:24:30Z</time>
      </trkpt>
      <trkpt lat="49.14869" lon="7.09053">
        <ele>202.5</ele>
        <time>2022-03-06T15:24:36Z</time>
      </trkpt>
      <trkpt lat="49.1486" lon="7.09045">
        <ele>202.4</ele>
        <time>2022-03-06T15:24:41Z</time>
      </trkpt>
      <trkpt lat="49.14852" lon="7.09036">
        <ele>202.4</ele>
        <time>2022-03-06T15:24:45Z</time>
      </trkpt>
      <trkpt lat="49.14847" lon="7.09023">
        <ele>202.4</ele>
        <time>2022-03-06T15:24:52Z</time>
      </trkpt>
      <trkpt lat="49.14839" lon="7.09015">
        <ele>202.4</ele>
        <time>2022-03-06T15:24:58Z</time>
      </trkpt>
      <trkpt lat="49.14833" lon="7.09002">
        <ele>202.4</ele>
        <time>2022-03-06T15:25:05Z</time>
      </trkpt>
      <trkpt lat="49.1483" lon="7.08987">
        <ele>202.3</ele>
        <time>2022-03-06T15:25:15Z</time>
      </trkpt>
      <trkpt lat="49.14823" lon="7.08978">
        <ele>202.2</ele>
        <time>2022-03-06T15:25:24Z</time>
      </trkpt>
      <trkpt lat="49.14815" lon="7.0897">
        <ele>202.1</ele>
        <time>2022-03-06T15:25:31Z</time>
      </trkpt>
      <trkpt lat="49.14808" lon="7.08959">
        <ele>202</ele>
        <time>2022-03-06T15:25:41Z</time>
      </trkpt>
      <trkpt lat="49.148" lon="7.08951">
        <ele>201.9</ele>
        <time>2022-03-06T15:25:46Z</time>
      </trkpt>
      <trkpt lat="49.14793" lon="7.08941">
        <ele>201.9</ele>
        <time>2022-03-06T15:25:53Z</time>
      </trkpt>
      <trkpt lat="49.14788" lon="7.08929">
        <ele>201.9</ele>
        <time>2022-03-06T15:26:01Z</time>
      </trkpt>
      <trkpt lat="49.14781" lon="7.08917">
        <ele>202</ele>
        <time>2022-03-06T15:26:10Z</time>
      </trkpt>
      <trkpt lat="49.14774" lon="7.08907">
        <ele>202.1</ele>
        <time>2022-03-06T15:26:17Z</time>
      </trkpt>
      <trkpt lat="49.14767" lon="7.08899">
        <ele>202.1</ele>
        <time>2022-03-06T15:26:24Z</time>
      </trkpt>
      <trkpt lat="49.14759" lon="7.08888">
        <ele>202.3</ele>
        <time>2022-03-06T15:26:33Z</time>
      </trkpt>
      <trkpt lat="49.1475" lon="7.08881">
        <ele>202.5</ele>
        <time>2022-03-06T15:26:40Z</time>
      </trkpt>
      <trkpt lat="49.14744" lon="7.0887">
        <ele>202.8</ele>
        <time>2022-03-06T15:26:47Z</time>
      </trkpt>
      <trkpt lat="49.14735" lon="7.08859">
        <ele>203.2</ele>
        <time>2022-03-06T15:26:55Z</time>
      </trkpt>
      <trkpt lat="49.14727" lon="7.08854">
        <ele>203.6</ele>
        <time>2022-03-06T15:27:03Z</time>
      </trkpt>
      <trkpt lat="49.14721" lon="7.08843">
        <ele>203.9</ele>
        <time>2022-03-06T15:27:12Z</time>
      </trkpt>
      <trkpt lat="49.14713" lon="7.08833">
        <ele>204.4</ele>
        <time>2022-03-06T15:27:19Z</time>
      </trkpt>
      <trkpt lat="49.14708" lon="7.0882">
        <ele>204.8</ele>
        <time>2022-03-06T15:27:27Z</time>
      </trkpt>
      <trkpt lat="49.147" lon="7.08812">
        <ele>205.1</ele>
        <time>2022-03-06T15:27:35Z</time>
      </trkpt>
      <trkpt lat="49.14692" lon="7.08805">
        <ele>205.5</ele>
        <time>2022-03-06T15:27:41Z</time>
      </trkpt>
      <trkpt lat="49.14683" lon="7.08796">
        <ele>205.8</ele>
        <time>2022-03-06T15:27:48Z</time>
      </trkpt>
      <trkpt lat="49.14677" lon="7.08786">
        <ele>206</ele>
        <time>2022-03-06T15:27:55Z</time>
      </trkpt>
      <trkpt lat="49.14668" lon="7.08778">
        <ele>206.4</ele>
        <time>2022-03-06T15:28:03Z</time>
      </trkpt>
      <trkpt lat="49.1466" lon="7.0877">
        <ele>206.7</ele>
        <time>2022-03-06T15:28:10Z</time>
      </trkpt>
      <trkpt lat="49.14652" lon="7.08764">
        <ele>207.1</ele>
        <time>2022-03-06T15:28:15Z</time>
      </trkpt>
      <trkpt lat="49.14648" lon="7.08757">
        <ele>207.3</ele>
        <time>2022-03-06T15:28:21Z</time>
      </trkpt>
      <trkpt lat="49.14647" lon="7.08758">
        <ele>207.3</ele>
        <time>2022-03-06T15:28:22Z</time>
      </trkpt>
      <trkpt lat="49.14641" lon="7.08747">
        <ele>207.7</ele>
        <time>2022-03-06T15:28:29Z</time>
      </trkpt>
      <trkpt lat="49.14633" lon="7.0874">
        <ele>208.2</ele>
        <time>2022-03-06T15:28:37Z</time>
      </trkpt>
      <trkpt lat="49.14626" lon="7.0873">
        <ele>208.6</ele>
        <time>2022-03-06T15:28:45Z</time>
      </trkpt>
      <trkpt lat="49.14617" lon="7.08733">
        <ele>209</ele>
        <time>2022-03-06T15:29:08Z</time>
      </trkpt>
      <trkpt lat="49.14618" lon="7.08733">
        <ele>209</ele>
        <time>2022-03-06T15:29:13Z</time>
      </trkpt>
      <trkpt lat="49.14617" lon="7.08733">
        <ele>209</ele>
        <time>2022-03-06T15:29:14Z</time>
      </trkpt>
      <trkpt lat="49.14616" lon="7.08719">
        <ele>209.3</ele>
        <time>2022-03-06T15:29:41Z</time>
      </trkpt>
      <trkpt lat="49.1461" lon="7.08708">
        <ele>209.6</ele>
        <time>2022-03-06T15:29:48Z</time>
      </trkpt>
      <trkpt lat="49.14602" lon="7.087">
        <ele>209.8</ele>
        <time>2022-03-06T15:29:53Z</time>
      </trkpt>
      <trkpt lat="49.14595" lon="7.08691">
        <ele>210</ele>
        <time>2022-03-06T15:30:00Z</time>
      </trkpt>
      <trkpt lat="49.14586" lon="7.08684">
        <ele>210.1</ele>
        <time>2022-03-06T15:30:09Z</time>
      </trkpt>
      <trkpt lat="49.14578" lon="7.08674">
        <ele>210.1</ele>
        <time>2022-03-06T15:30:16Z</time>
      </trkpt>
      <trkpt lat="49.14569" lon="7.08674">
        <ele>210</ele>
        <time>2022-03-06T15:30:20Z</time>
      </trkpt>
      <trkpt lat="49.14561" lon="7.08668">
        <ele>210</ele>
        <time>2022-03-06T15:30:27Z</time>
      </trkpt>
      <trkpt lat="49.14553" lon="7.08659">
        <ele>210</ele>
        <time>2022-03-06T15:30:35Z</time>
      </trkpt>
      <trkpt lat="49.14545" lon="7.08653">
        <ele>210.2</ele>
        <time>2022-03-06T15:30:43Z</time>
      </trkpt>
      <trkpt lat="49.14535" lon="7.08647">
        <ele>210.5</ele>
        <time>2022-03-06T15:30:49Z</time>
      </trkpt>
      <trkpt lat="49.14532" lon="7.08634">
        <ele>210.8</ele>
        <time>2022-03-06T15:31:00Z</time>
      </trkpt>
      <trkpt lat="49.14523" lon="7.08626">
        <ele>211</ele>
        <time>2022-03-06T15:31:08Z</time>
      </trkpt>
      <trkpt lat="49.14514" lon="7.08621">
        <ele>211.2</ele>
        <time>2022-03-06T15:31:17Z</time>
      </trkpt>
      <trkpt lat="49.14504" lon="7.08618">
        <ele>211.3</ele>
        <time>2022-03-06T15:31:25Z</time>
      </trkpt>
      <trkpt lat="49.14495" lon="7.08611">
        <ele>211.4</ele>
        <time>2022-03-06T15:31:34Z</time>
      </trkpt>
      <trkpt lat="49.14486" lon="7.08605">
        <ele>211.6</ele>
        <time>2022-03-06T15:31:42Z</time>
      </trkpt>
      <trkpt lat="49.14477" lon="7.08599">
        <ele>211.7</ele>
        <time>2022-03-06T15:31:53Z</time>
      </trkpt>
      <trkpt lat="49.14467" lon="7.08599">
        <ele>211.3</ele>
        <time>2022-03-06T15:32:02Z</time>
      </trkpt>
      <trkpt lat="49.14458" lon="7.08594">
        <ele>210.8</ele>
        <time>2022-03-06T15:32:11Z</time>
      </trkpt>
      <trkpt lat="49.14449" lon="7.08591">
        <ele>210.2</ele>
        <time>2022-03-06T15:32:21Z</time>
      </trkpt>
      <trkpt lat="49.14444" lon="7.08578">
        <ele>209.7</ele>
        <time>2022-03-06T15:32:30Z</time>
      </trkpt>
      <trkpt lat="49.14436" lon="7.08571">
        <ele>209.1</ele>
        <time>2022-03-06T15:32:36Z</time>
      </trkpt>
      <trkpt lat="49.14427" lon="7.08567">
        <ele>208.6</ele>
        <time>2022-03-06T15:32:41Z</time>
      </trkpt>
      <trkpt lat="49.14418" lon="7.08562">
        <ele>208.1</ele>
        <time>2022-03-06T15:32:50Z</time>
      </trkpt>
      <trkpt lat="49.1441" lon="7.08554">
        <ele>207.5</ele>
        <time>2022-03-06T15:32:57Z</time>
      </trkpt>
      <trkpt lat="49.14402" lon="7.08545">
        <ele>206.9</ele>
        <time>2022-03-06T15:33:06Z</time>
      </trkpt>
      <trkpt lat="49.14392" lon="7.08541">
        <ele>206.4</ele>
        <time>2022-03-06T15:33:16Z</time>
      </trkpt>
      <trkpt lat="49.14383" lon="7.08536">
        <ele>205.8</ele>
        <time>2022-03-06T15:33:23Z</time>
      </trkpt>
      <trkpt lat="49.14375" lon="7.08528">
        <ele>205.2</ele>
        <time>2022-03-06T15:33:28Z</time>
      </trkpt>
      <trkpt lat="49.14367" lon="7.08524">
        <ele>204.5</ele>
        <time>2022-03-06T15:33:36Z</time>
      </trkpt>
      <trkpt lat="49.14359" lon="7.08518">
        <ele>203.9</ele>
        <time>2022-03-06T15:33:41Z</time>
      </trkpt>
      <trkpt lat="49.14354" lon="7.08503">
        <ele>203.1</ele>
        <time>2022-03-06T15:33:51Z</time>
      </trkpt>
      <trkpt lat="49.14345" lon="7.085">
        <ele>202.7</ele>
        <time>2022-03-06T15:33:57Z</time>
      </trkpt>
      <trkpt lat="49.14336" lon="7.08499">
        <ele>203.8</ele>
        <time>2022-03-06T15:34:04Z</time>
      </trkpt>
      <trkpt lat="49.14332" lon="7.08511">
        <ele>204.7</ele>
        <time>2022-03-06T15:34:12Z</time>
      </trkpt>
      <trkpt lat="49.14328" lon="7.08525">
        <ele>205.7</ele>
        <time>2022-03-06T15:34:21Z</time>
      </trkpt>
      <trkpt lat="49.14321" lon="7.08537">
        <ele>206.9</ele>
        <time>2022-03-06T15:34:27Z</time>
      </trkpt>
      <trkpt lat="49.14315" lon="7.08548">
        <ele>208</ele>
        <time>2022-03-06T15:34:35Z</time>
      </trkpt>
      <trkpt lat="49.14309" lon="7.0856">
        <ele>209.1</ele>
        <time>2022-03-06T15:34:43Z</time>
      </trkpt>
      <trkpt lat="49.14303" lon="7.08572">
        <ele>210.2</ele>
        <time>2022-03-06T15:34:50Z</time>
      </trkpt>
      <trkpt lat="49.14299" lon="7.08586">
        <ele>211.3</ele>
        <time>2022-03-06T15:34:58Z</time>
      </trkpt>
      <trkpt lat="49.14293" lon="7.08598">
        <ele>212.4</ele>
        <time>2022-03-06T15:35:07Z</time>
      </trkpt>
      <trkpt lat="49.14288" lon="7.08611">
        <ele>213.3</ele>
        <time>2022-03-06T15:35:15Z</time>
      </trkpt>
      <trkpt lat="49.14283" lon="7.08623">
        <ele>214.1</ele>
        <time>2022-03-06T15:35:23Z</time>
      </trkpt>
      <trkpt lat="49.14279" lon="7.08637">
        <ele>214.9</ele>
        <time>2022-03-06T15:35:31Z</time>
      </trkpt>
      <trkpt lat="49.14275" lon="7.0865">
        <ele>215.5</ele>
        <time>2022-03-06T15:35:38Z</time>
      </trkpt>
      <trkpt lat="49.14272" lon="7.08663">
        <ele>216.2</ele>
        <time>2022-03-06T15:35:46Z</time>
      </trkpt>
      <trkpt lat="49.14265" lon="7.08674">
        <ele>216.8</ele>
        <time>2022-03-06T15:35:53Z</time>
      </trkpt>
      <trkpt lat="49.14257" lon="7.08682">
        <ele>217.3</ele>
        <time>2022-03-06T15:35:59Z</time>
      </trkpt>
      <trkpt lat="49.14249" lon="7.08687">
        <ele>217.9</ele>
        <time>2022-03-06T15:36:07Z</time>
      </trkpt>
      <trkpt lat="49.14238" lon="7.08691">
        <ele>218.6</ele>
        <time>2022-03-06T15:36:20Z</time>
      </trkpt>
      <trkpt lat="49.1423" lon="7.08697">
        <ele>219.2</ele>
        <time>2022-03-06T15:36:28Z</time>
      </trkpt>
      <trkpt lat="49.14221" lon="7.08705">
        <ele>219.9</ele>
        <time>2022-03-06T15:36:35Z</time>
      </trkpt>
      <trkpt lat="49.14212" lon="7.08712">
        <ele>220.4</ele>
        <time>2022-03-06T15:36:42Z</time>
      </trkpt>
      <trkpt lat="49.14203" lon="7.08718">
        <ele>220.9</ele>
        <time>2022-03-06T15:36:49Z</time>
      </trkpt>
      <trkpt lat="49.14193" lon="7.08727">
        <ele>221.4</ele>
        <time>2022-03-06T15:36:56Z</time>
      </trkpt>
      <trkpt lat="49.14184" lon="7.0873">
        <ele>221.8</ele>
        <time>2022-03-06T15:37:03Z</time>
      </trkpt>
      <trkpt lat="49.14175" lon="7.08736">
        <ele>222.2</ele>
        <time>2022-03-06T15:37:14Z</time>
      </trkpt>
      <trkpt lat="49.14175" lon="7.08736">
        <ele>222.2</ele>
        <time>2022-03-06T15:37:17Z</time>
      </trkpt>
      <trkpt lat="49.14175" lon="7.08736">
        <ele>222.2</ele>
        <time>2022-03-06T15:37:18Z</time>
      </trkpt>
      <trkpt lat="49.14174" lon="7.08738">
        <ele>222.3</ele>
        <time>2022-03-06T15:37:23Z</time>
      </trkpt>
      <trkpt lat="49.14173" lon="7.08738">
        <ele>222.3</ele>
        <time>2022-03-06T15:37:24Z</time>
      </trkpt>
      <trkpt lat="49.14173" lon="7.08738">
        <ele>222.4</ele>
        <time>2022-03-06T15:37:26Z</time>
      </trkpt>
      <trkpt lat="49.14173" lon="7.08739">
        <ele>222.4</ele>
        <time>2022-03-06T15:37:27Z</time>
      </trkpt>
      <trkpt lat="49.14163" lon="7.08742">
        <ele>222.8</ele>
        <time>2022-03-06T15:37:40Z</time>
      </trkpt>
      <trkpt lat="49.14153" lon="7.08745">
        <ele>223.3</ele>
        <time>2022-03-06T15:37:47Z</time>
      </trkpt>
      <trkpt lat="49.14144" lon="7.0875">
        <ele>223.8</ele>
        <time>2022-03-06T15:37:52Z</time>
      </trkpt>
      <trkpt lat="49.14135" lon="7.08757">
        <ele>224.3</ele>
        <time>2022-03-06T15:37:58Z</time>
      </trkpt>
      <trkpt lat="49.14126" lon="7.08763">
        <ele>224.8</ele>
        <time>2022-03-06T15:38:06Z</time>
      </trkpt>
      <trkpt lat="49.14117" lon="7.08767">
        <ele>225.2</ele>
        <time>2022-03-06T15:38:10Z</time>
      </trkpt>
      <trkpt lat="49.14108" lon="7.08774">
        <ele>225.7</ele>
        <time>2022-03-06T15:38:16Z</time>
      </trkpt>
      <trkpt lat="49.141" lon="7.08781">
        <ele>226</ele>
        <time>2022-03-06T15:38:21Z</time>
      </trkpt>
      <trkpt lat="49.14092" lon="7.08789">
        <ele>226.3</ele>
        <time>2022-03-06T15:38:27Z</time>
      </trkpt>
      <trkpt lat="49.13952" lon="7.08913">
        <ele>225.6</ele>
        <time>2022-03-06T15:40:48Z</time>
      </trkpt>
      <trkpt lat="49.13945" lon="7.08923">
        <ele>225.7</ele>
        <time>2022-03-06T15:40:54Z</time>
      </trkpt>
      <trkpt lat="49.13936" lon="7.08928">
        <ele>225.8</ele>
        <time>2022-03-06T15:41:03Z</time>
      </trkpt>
      <trkpt lat="49.13927" lon="7.08933">
        <ele>225.8</ele>
        <time>2022-03-06T15:41:12Z</time>
      </trkpt>
      <trkpt lat="49.13919" lon="7.08942">
        <ele>225.9</ele>
        <time>2022-03-06T15:41:20Z</time>
      </trkpt>
      <trkpt lat="49.1391" lon="7.08945">
        <ele>226.1</ele>
        <time>2022-03-06T15:41:32Z</time>
      </trkpt>
      <trkpt lat="49.13901" lon="7.08955">
        <ele>226.4</ele>
        <time>2022-03-06T15:41:39Z</time>
      </trkpt>
      <trkpt lat="49.13892" lon="7.08962">
        <ele>226.8</ele>
        <time>2022-03-06T15:41:45Z</time>
      </trkpt>
      <trkpt lat="49.13884" lon="7.08967">
        <ele>227.3</ele>
        <time>2022-03-06T15:41:53Z</time>
      </trkpt>
      <trkpt lat="49.13876" lon="7.08975">
        <ele>227.9</ele>
        <time>2022-03-06T15:42:01Z</time>
      </trkpt>
      <trkpt lat="49.13877" lon="7.0899">
        <ele>228.6</ele>
        <time>2022-03-06T15:42:14Z</time>
      </trkpt>
      <trkpt lat="49.13881" lon="7.09004">
        <ele>229.5</ele>
        <time>2022-03-06T15:42:22Z</time>
      </trkpt>
      <trkpt lat="49.13884" lon="7.09019">
        <ele>230.6</ele>
        <time>2022-03-06T15:42:29Z</time>
      </trkpt>
      <trkpt lat="49.13885" lon="7.09033">
        <ele>231.6</ele>
        <time>2022-03-06T15:42:35Z</time>
      </trkpt>
      <trkpt lat="49.1389" lon="7.09047">
        <ele>232.6</ele>
        <time>2022-03-06T15:42:44Z</time>
      </trkpt>
      <trkpt lat="49.13894" lon="7.09062">
        <ele>233.8</ele>
        <time>2022-03-06T15:42:52Z</time>
      </trkpt>
      <trkpt lat="49.13898" lon="7.09074">
        <ele>234.8</ele>
        <time>2022-03-06T15:43:01Z</time>
      </trkpt>
      <trkpt lat="49.13902" lon="7.09087">
        <ele>235.8</ele>
        <time>2022-03-06T15:43:07Z</time>
      </trkpt>
      <trkpt lat="49.13904" lon="7.09101">
        <ele>236.8</ele>
        <time>2022-03-06T15:43:13Z</time>
      </trkpt>
      <trkpt lat="49.13908" lon="7.09114">
        <ele>238</ele>
        <time>2022-03-06T15:43:19Z</time>
      </trkpt>
      <trkpt lat="49.13908" lon="7.09129">
        <ele>239.3</ele>
        <time>2022-03-06T15:43:26Z</time>
      </trkpt>
      <trkpt lat="49.1391" lon="7.09144">
        <ele>240.6</ele>
        <time>2022-03-06T15:43:34Z</time>
      </trkpt>
      <trkpt lat="49.13912" lon="7.09161">
        <ele>242</ele>
        <time>2022-03-06T15:43:41Z</time>
      </trkpt>
      <trkpt lat="49.13912" lon="7.09176">
        <ele>243.3</ele>
        <time>2022-03-06T15:43:47Z</time>
      </trkpt>
      <trkpt lat="49.13915" lon="7.09191">
        <ele>244.5</ele>
        <time>2022-03-06T15:43:54Z</time>
      </trkpt>
      <trkpt lat="49.13918" lon="7.09205">
        <ele>245.7</ele>
        <time>2022-03-06T15:44:02Z</time>
      </trkpt>
      <trkpt lat="49.13919" lon="7.0922">
        <ele>246.9</ele>
        <time>2022-03-06T15:44:08Z</time>
      </trkpt>
      <trkpt lat="49.13917" lon="7.09233">
        <ele>248.2</ele>
        <time>2022-03-06T15:44:17Z</time>
      </trkpt>
      <trkpt lat="49.13914" lon="7.09247">
        <ele>249.6</ele>
        <time>2022-03-06T15:44:28Z</time>
      </trkpt>
      <trkpt lat="49.13908" lon="7.0926">
        <ele>251.1</ele>
        <time>2022-03-06T15:44:38Z</time>
      </trkpt>
      <trkpt lat="49.139" lon="7.09269">
        <ele>252.4</ele>
        <time>2022-03-06T15:44:44Z</time>
      </trkpt>
      <trkpt lat="49.13896" lon="7.09282">
        <ele>254.1</ele>
        <time>2022-03-06T15:45:02Z</time>
      </trkpt>
      <trkpt lat="49.13892" lon="7.09295">
        <ele>255.4</ele>
        <time>2022-03-06T15:45:09Z</time>
      </trkpt>
      <trkpt lat="49.13873" lon="7.09323">
        <ele>258.4</ele>
        <time>2022-03-06T15:45:31Z</time>
      </trkpt>
      <trkpt lat="49.13873" lon="7.09348">
        <ele>260.4</ele>
        <time>2022-03-06T15:45:47Z</time>
      </trkpt>
      <trkpt lat="49.13863" lon="7.09356">
        <ele>261.9</ele>
        <time>2022-03-06T15:45:59Z</time>
      </trkpt>
      <trkpt lat="49.13853" lon="7.09353">
        <ele>263.2</ele>
        <time>2022-03-06T15:46:12Z</time>
      </trkpt>
      <trkpt lat="49.13845" lon="7.09364">
        <ele>264.4</ele>
        <time>2022-03-06T15:46:15Z</time>
      </trkpt>
      <trkpt lat="49.13841" lon="7.09378">
        <ele>265.2</ele>
        <time>2022-03-06T15:46:18Z</time>
      </trkpt>
      <trkpt lat="49.13829" lon="7.09392">
        <ele>266.3</ele>
        <time>2022-03-06T15:46:26Z</time>
      </trkpt>
      <trkpt lat="49.13825" lon="7.09391">
        <ele>266.5</ele>
        <time>2022-03-06T15:46:29Z</time>
      </trkpt>
      <trkpt lat="49.13824" lon="7.09392">
        <ele>266.6</ele>
        <time>2022-03-06T15:46:30Z</time>
      </trkpt>
      <trkpt lat="49.13818" lon="7.09411">
        <ele>267.3</ele>
        <time>2022-03-06T15:46:37Z</time>
      </trkpt>
      <trkpt lat="49.13814" lon="7.09424">
        <ele>267.8</ele>
        <time>2022-03-06T15:46:42Z</time>
      </trkpt>
      <trkpt lat="49.13806" lon="7.09431">
        <ele>268.1</ele>
        <time>2022-03-06T15:46:48Z</time>
      </trkpt>
      <trkpt lat="49.13798" lon="7.09443">
        <ele>268.5</ele>
        <time>2022-03-06T15:46:57Z</time>
      </trkpt>
      <trkpt lat="49.13791" lon="7.09453">
        <ele>268.8</ele>
        <time>2022-03-06T15:47:03Z</time>
      </trkpt>
      <trkpt lat="49.13789" lon="7.09467">
        <ele>269.2</ele>
        <time>2022-03-06T15:47:11Z</time>
      </trkpt>
      <trkpt lat="49.13786" lon="7.09481">
        <ele>269.6</ele>
        <time>2022-03-06T15:47:19Z</time>
      </trkpt>
      <trkpt lat="49.13784" lon="7.09495">
        <ele>270</ele>
        <time>2022-03-06T15:47:26Z</time>
      </trkpt>
      <trkpt lat="49.13777" lon="7.09505">
        <ele>270.4</ele>
        <time>2022-03-06T15:47:36Z</time>
      </trkpt>
      <trkpt lat="49.13769" lon="7.09509">
        <ele>270.6</ele>
        <time>2022-03-06T15:47:46Z</time>
      </trkpt>
      <trkpt lat="49.13762" lon="7.09512">
        <ele>270.7</ele>
        <time>2022-03-06T15:47:58Z</time>
      </trkpt>
      <trkpt lat="49.13761" lon="7.09512">
        <ele>270.7</ele>
        <time>2022-03-06T15:47:59Z</time>
      </trkpt>
      <trkpt lat="49.13752" lon="7.09514">
        <ele>270.7</ele>
        <time>2022-03-06T15:48:07Z</time>
      </trkpt>
      <trkpt lat="49.13744" lon="7.0952">
        <ele>270.8</ele>
        <time>2022-03-06T15:48:13Z</time>
      </trkpt>
      <trkpt lat="49.13735" lon="7.09526">
        <ele>270.8</ele>
        <time>2022-03-06T15:48:20Z</time>
      </trkpt>
      <trkpt lat="49.13726" lon="7.09527">
        <ele>270.9</ele>
        <time>2022-03-06T15:48:30Z</time>
      </trkpt>
      <trkpt lat="49.13717" lon="7.09528">
        <ele>271.1</ele>
        <time>2022-03-06T15:48:41Z</time>
      </trkpt>
      <trkpt lat="49.13709" lon="7.09534">
        <ele>271.2</ele>
        <time>2022-03-06T15:48:50Z</time>
      </trkpt>
      <trkpt lat="49.13699" lon="7.0954">
        <ele>271.3</ele>
        <time>2022-03-06T15:49:02Z</time>
      </trkpt>
      <trkpt lat="49.13689" lon="7.09546">
        <ele>271.4</ele>
        <time>2022-03-06T15:49:10Z</time>
      </trkpt>
      <trkpt lat="49.13679" lon="7.09548">
        <ele>271.4</ele>
        <time>2022-03-06T15:49:23Z</time>
      </trkpt>
      <trkpt lat="49.13671" lon="7.09543">
        <ele>270.9</ele>
        <time>2022-03-06T15:49:32Z</time>
      </trkpt>
      <trkpt lat="49.13661" lon="7.09537">
        <ele>270.3</ele>
        <time>2022-03-06T15:49:42Z</time>
      </trkpt>
      <trkpt lat="49.1365" lon="7.09534">
        <ele>269.7</ele>
        <time>2022-03-06T15:49:48Z</time>
      </trkpt>
      <trkpt lat="49.13641" lon="7.09532">
        <ele>269.2</ele>
        <time>2022-03-06T15:49:54Z</time>
      </trkpt>
      <trkpt lat="49.13631" lon="7.09535">
        <ele>268.6</ele>
        <time>2022-03-06T15:49:58Z</time>
      </trkpt>
      <trkpt lat="49.13621" lon="7.09533">
        <ele>268</ele>
        <time>2022-03-06T15:50:03Z</time>
      </trkpt>
      <trkpt lat="49.13616" lon="7.09518">
        <ele>267.4</ele>
        <time>2022-03-06T15:50:07Z</time>
      </trkpt>
      <trkpt lat="49.13612" lon="7.09505">
        <ele>266.9</ele>
        <time>2022-03-06T15:50:13Z</time>
      </trkpt>
      <trkpt lat="49.13605" lon="7.09495">
        <ele>266.5</ele>
        <time>2022-03-06T15:50:21Z</time>
      </trkpt>
      <trkpt lat="49.13596" lon="7.09488">
        <ele>266</ele>
        <time>2022-03-06T15:50:30Z</time>
      </trkpt>
      <trkpt lat="49.13591" lon="7.09477">
        <ele>265.5</ele>
        <time>2022-03-06T15:50:38Z</time>
      </trkpt>
      <trkpt lat="49.13585" lon="7.09466">
        <ele>265.1</ele>
        <time>2022-03-06T15:50:47Z</time>
      </trkpt>
      <trkpt lat="49.13575" lon="7.09454">
        <ele>264.5</ele>
        <time>2022-03-06T15:50:58Z</time>
      </trkpt>
      <trkpt lat="49.13569" lon="7.0944">
        <ele>264.1</ele>
        <time>2022-03-06T15:51:02Z</time>
      </trkpt>
      <trkpt lat="49.13562" lon="7.09431">
        <ele>263.3</ele>
        <time>2022-03-06T15:51:08Z</time>
      </trkpt>
      <trkpt lat="49.13552" lon="7.09436">
        <ele>263.5</ele>
        <time>2022-03-06T15:51:15Z</time>
      </trkpt>
      <trkpt lat="49.13542" lon="7.09438">
        <ele>263.6</ele>
        <time>2022-03-06T15:51:23Z</time>
      </trkpt>
      <trkpt lat="49.13539" lon="7.09451">
        <ele>263.7</ele>
        <time>2022-03-06T15:51:31Z</time>
      </trkpt>
      <trkpt lat="49.13531" lon="7.09458">
        <ele>263.8</ele>
        <time>2022-03-06T15:51:44Z</time>
      </trkpt>
      <trkpt lat="49.13522" lon="7.09467">
        <ele>263.9</ele>
        <time>2022-03-06T15:51:53Z</time>
      </trkpt>
      <trkpt lat="49.13514" lon="7.09474">
        <ele>263.8</ele>
        <time>2022-03-06T15:52:01Z</time>
      </trkpt>
      <trkpt lat="49.13505" lon="7.09477">
        <ele>263.8</ele>
        <time>2022-03-06T15:52:10Z</time>
      </trkpt>
      <trkpt lat="49.13499" lon="7.09494">
        <ele>263.6</ele>
        <time>2022-03-06T15:52:22Z</time>
      </trkpt>
      <trkpt lat="49.13493" lon="7.09515">
        <ele>263.3</ele>
        <time>2022-03-06T15:52:33Z</time>
      </trkpt>
      <trkpt lat="49.13486" lon="7.09529">
        <ele>263.1</ele>
        <time>2022-03-06T15:52:35Z</time>
      </trkpt>
      <trkpt lat="49.13484" lon="7.09531">
        <ele>263</ele>
        <time>2022-03-06T15:52:37Z</time>
      </trkpt>
      <trkpt lat="49.13482" lon="7.09532">
        <ele>263</ele>
        <time>2022-03-06T15:52:38Z</time>
      </trkpt>
      <trkpt lat="49.13477" lon="7.09544">
        <ele>262.9</ele>
        <time>2022-03-06T15:52:44Z</time>
      </trkpt>
      <trkpt lat="49.13471" lon="7.09555">
        <ele>262.9</ele>
        <time>2022-03-06T15:52:51Z</time>
      </trkpt>
      <trkpt lat="49.13472" lon="7.0957">
        <ele>263</ele>
        <time>2022-03-06T15:53:02Z</time>
      </trkpt>
      <trkpt lat="49.13477" lon="7.09584">
        <ele>263.1</ele>
        <time>2022-03-06T15:53:10Z</time>
      </trkpt>
      <trkpt lat="49.13475" lon="7.09599">
        <ele>263.2</ele>
        <time>2022-03-06T15:53:19Z</time>
      </trkpt>
      <trkpt lat="49.13468" lon="7.09608">
        <ele>263.4</ele>
        <time>2022-03-06T15:53:25Z</time>
      </trkpt>
      <trkpt lat="49.13465" lon="7.09623">
        <ele>263.5</ele>
        <time>2022-03-06T15:53:31Z</time>
      </trkpt>
      <trkpt lat="49.13469" lon="7.09637">
        <ele>263.7</ele>
        <time>2022-03-06T15:53:37Z</time>
      </trkpt>
      <trkpt lat="49.1347" lon="7.09651">
        <ele>263.8</ele>
        <time>2022-03-06T15:53:46Z</time>
      </trkpt>
      <trkpt lat="49.13464" lon="7.09662">
        <ele>264</ele>
        <time>2022-03-06T15:53:51Z</time>
      </trkpt>
      <trkpt lat="49.13463" lon="7.09676">
        <ele>264.1</ele>
        <time>2022-03-06T15:54:00Z</time>
      </trkpt>
      <trkpt lat="49.13464" lon="7.09691">
        <ele>264.2</ele>
        <time>2022-03-06T15:54:06Z</time>
      </trkpt>
      <trkpt lat="49.13464" lon="7.09715">
        <ele>264.4</ele>
        <time>2022-03-06T15:54:27Z</time>
      </trkpt>
      <trkpt lat="49.13457" lon="7.09725">
        <ele>264.5</ele>
        <time>2022-03-06T15:54:36Z</time>
      </trkpt>
      <trkpt lat="49.13456" lon="7.09739">
        <ele>264.7</ele>
        <time>2022-03-06T15:54:45Z</time>
      </trkpt>
      <trkpt lat="49.13453" lon="7.09754">
        <ele>264.8</ele>
        <time>2022-03-06T15:54:53Z</time>
      </trkpt>
      <trkpt lat="49.13452" lon="7.09769">
        <ele>265</ele>
        <time>2022-03-06T15:54:59Z</time>
      </trkpt>
      <trkpt lat="49.13452" lon="7.09784">
        <ele>265.1</ele>
        <time>2022-03-06T15:55:04Z</time>
      </trkpt>
      <trkpt lat="49.13451" lon="7.09799">
        <ele>265.2</ele>
        <time>2022-03-06T15:55:10Z</time>
      </trkpt>
      <trkpt lat="49.1345" lon="7.09815">
        <ele>265.3</ele>
        <time>2022-03-06T15:55:17Z</time>
      </trkpt>
      <trkpt lat="49.13449" lon="7.09829">
        <ele>265.4</ele>
        <time>2022-03-06T15:55:22Z</time>
      </trkpt>
      <trkpt lat="49.13446" lon="7.09842">
        <ele>265.5</ele>
        <time>2022-03-06T15:55:30Z</time>
      </trkpt>
      <trkpt lat="49.13443" lon="7.09858">
        <ele>265.6</ele>
        <time>2022-03-06T15:55:40Z</time>
      </trkpt>
      <trkpt lat="49.13442" lon="7.0987">
        <ele>265.6</ele>
        <time>2022-03-06T15:55:48Z</time>
      </trkpt>
      <trkpt lat="49.13442" lon="7.09871">
        <ele>265.6</ele>
        <time>2022-03-06T15:55:49Z</time>
      </trkpt>
      <trkpt lat="49.13437" lon="7.09884">
        <ele>265.5</ele>
        <time>2022-03-06T15:56:00Z</time>
      </trkpt>
      <trkpt lat="49.13429" lon="7.0989">
        <ele>265</ele>
        <time>2022-03-06T15:56:09Z</time>
      </trkpt>
      <trkpt lat="49.13419" lon="7.0989">
        <ele>264.5</ele>
        <time>2022-03-06T15:56:19Z</time>
      </trkpt>
      <trkpt lat="49.13411" lon="7.09884">
        <ele>264.1</ele>
        <time>2022-03-06T15:56:25Z</time>
      </trkpt>
      <trkpt lat="49.13402" lon="7.09878">
        <ele>263.7</ele>
        <time>2022-03-06T15:56:32Z</time>
      </trkpt>
      <trkpt lat="49.13394" lon="7.09872">
        <ele>263.2</ele>
        <time>2022-03-06T15:56:40Z</time>
      </trkpt>
      <trkpt lat="49.13385" lon="7.09867">
        <ele>262.9</ele>
        <time>2022-03-06T15:56:47Z</time>
      </trkpt>
      <trkpt lat="49.13376" lon="7.0986">
        <ele>262.5</ele>
        <time>2022-03-06T15:56:55Z</time>
      </trkpt>
      <trkpt lat="49.13368" lon="7.09853">
        <ele>262.1</ele>
        <time>2022-03-06T15:57:05Z</time>
      </trkpt>
      <trkpt lat="49.13358" lon="7.09846">
        <ele>261.7</ele>
        <time>2022-03-06T15:57:13Z</time>
      </trkpt>
      <trkpt lat="49.1335" lon="7.09841">
        <ele>261.4</ele>
        <time>2022-03-06T15:57:21Z</time>
      </trkpt>
      <trkpt lat="49.13341" lon="7.09835">
        <ele>261.1</ele>
        <time>2022-03-06T15:57:30Z</time>
      </trkpt>
      <trkpt lat="49.13333" lon="7.09828">
        <ele>260.9</ele>
        <time>2022-03-06T15:57:38Z</time>
      </trkpt>
      <trkpt lat="49.13323" lon="7.09824">
        <ele>260.6</ele>
        <time>2022-03-06T15:57:46Z</time>
      </trkpt>
      <trkpt lat="49.13314" lon="7.0982">
        <ele>260.4</ele>
        <time>2022-03-06T15:57:54Z</time>
      </trkpt>
      <trkpt lat="49.13306" lon="7.09814">
        <ele>260.2</ele>
        <time>2022-03-06T15:58:01Z</time>
      </trkpt>
      <trkpt lat="49.13297" lon="7.09809">
        <ele>259.9</ele>
        <time>2022-03-06T15:58:09Z</time>
      </trkpt>
      <trkpt lat="49.13288" lon="7.09805">
        <ele>259.7</ele>
        <time>2022-03-06T15:58:17Z</time>
      </trkpt>
      <trkpt lat="49.1328" lon="7.09799">
        <ele>259.5</ele>
        <time>2022-03-06T15:58:26Z</time>
      </trkpt>
      <trkpt lat="49.13271" lon="7.09795">
        <ele>259.3</ele>
        <time>2022-03-06T15:58:44Z</time>
      </trkpt>
      <trkpt lat="49.13261" lon="7.09792">
        <ele>259.2</ele>
        <time>2022-03-06T15:58:55Z</time>
      </trkpt>
      <trkpt lat="49.13251" lon="7.09786">
        <ele>259</ele>
        <time>2022-03-06T15:59:02Z</time>
      </trkpt>
      <trkpt lat="49.13243" lon="7.09777">
        <ele>258.8</ele>
        <time>2022-03-06T15:59:09Z</time>
      </trkpt>
      <trkpt lat="49.13237" lon="7.09765">
        <ele>258.7</ele>
        <time>2022-03-06T15:59:16Z</time>
      </trkpt>
      <trkpt lat="49.13231" lon="7.09755">
        <ele>258.5</ele>
        <time>2022-03-06T15:59:24Z</time>
      </trkpt>
      <trkpt lat="49.13222" lon="7.09746">
        <ele>258.3</ele>
        <time>2022-03-06T15:59:34Z</time>
      </trkpt>
      <trkpt lat="49.13217" lon="7.09734">
        <ele>258.2</ele>
        <time>2022-03-06T15:59:41Z</time>
      </trkpt>
      <trkpt lat="49.13211" lon="7.09721">
        <ele>258</ele>
        <time>2022-03-06T15:59:47Z</time>
      </trkpt>
      <trkpt lat="49.13205" lon="7.09711">
        <ele>257.9</ele>
        <time>2022-03-06T15:59:54Z</time>
      </trkpt>
      <trkpt lat="49.13197" lon="7.09702">
        <ele>257.7</ele>
        <time>2022-03-06T16:00:01Z</time>
      </trkpt>
      <trkpt lat="49.1319" lon="7.09692">
        <ele>257.5</ele>
        <time>2022-03-06T16:00:08Z</time>
      </trkpt>
      <trkpt lat="49.13182" lon="7.09684">
        <ele>257.2</ele>
        <time>2022-03-06T16:00:17Z</time>
      </trkpt>
      <trkpt lat="49.13176" lon="7.09673">
        <ele>257</ele>
        <time>2022-03-06T16:00:25Z</time>
      </trkpt>
      <trkpt lat="49.13166" lon="7.09669">
        <ele>256.7</ele>
        <time>2022-03-06T16:00:34Z</time>
      </trkpt>
      <trkpt lat="49.13158" lon="7.09664">
        <ele>256.5</ele>
        <time>2022-03-06T16:00:42Z</time>
      </trkpt>
      <trkpt lat="49.13148" lon="7.09665">
        <ele>256.2</ele>
        <time>2022-03-06T16:00:47Z</time>
      </trkpt>
      <trkpt lat="49.13139" lon="7.0967">
        <ele>255.9</ele>
        <time>2022-03-06T16:00:52Z</time>
      </trkpt>
      <trkpt lat="49.13136" lon="7.09669">
        <ele>255.7</ele>
        <time>2022-03-06T16:00:57Z</time>
      </trkpt>
      <trkpt lat="49.13136" lon="7.09668">
        <ele>255.7</ele>
        <time>2022-03-06T16:00:58Z</time>
      </trkpt>
      <trkpt lat="49.13138" lon="7.09655">
        <ele>255.4</ele>
        <time>2022-03-06T16:01:07Z</time>
      </trkpt>
      <trkpt lat="49.13141" lon="7.09651">
        <ele>255.3</ele>
        <time>2022-03-06T16:01:32Z</time>
      </trkpt>
      <trkpt lat="49.13144" lon="7.09652">
        <ele>255.2</ele>
        <time>2022-03-06T16:01:33Z</time>
      </trkpt>
      <trkpt lat="49.13152" lon="7.09659">
        <ele>254.9</ele>
        <time>2022-03-06T16:01:37Z</time>
      </trkpt>
      <trkpt lat="49.13154" lon="7.09663">
        <ele>254.8</ele>
        <time>2022-03-06T16:02:02Z</time>
      </trkpt>
      <trkpt lat="49.13154" lon="7.09662">
        <ele>254.8</ele>
        <time>2022-03-06T16:02:04Z</time>
      </trkpt>
      <trkpt lat="49.13153" lon="7.09661">
        <ele>254.8</ele>
        <time>2022-03-06T16:02:07Z</time>
      </trkpt>
      <trkpt lat="49.13153" lon="7.09662">
        <ele>254.8</ele>
        <time>2022-03-06T16:02:08Z</time>
      </trkpt>
      <trkpt lat="49.13153" lon="7.09662">
        <ele>254.7</ele>
        <time>2022-03-06T16:02:31Z</time>
      </trkpt>
      <trkpt lat="49.13153" lon="7.09662">
        <ele>254.7</ele>
        <time>2022-03-06T16:02:32Z</time>
      </trkpt>
      <trkpt lat="49.13153" lon="7.09661">
        <ele>254.7</ele>
        <time>2022-03-06T16:02:36Z</time>
      </trkpt>
      <trkpt lat="49.13153" lon="7.09661">
        <ele>254.7</ele>
        <time>2022-03-06T16:02:37Z</time>
      </trkpt>
      <trkpt lat="49.13153" lon="7.09662">
        <ele>254.7</ele>
        <time>2022-03-06T16:02:39Z</time>
      </trkpt>
      <trkpt lat="49.13153" lon="7.09662">
        <ele>254.7</ele>
        <time>2022-03-06T16:02:40Z</time>
      </trkpt>
      <trkpt lat="49.13153" lon="7.09661">
        <ele>254.7</ele>
        <time>2022-03-06T16:02:46Z</time>
      </trkpt>
      <trkpt lat="49.13153" lon="7.09661">
        <ele>254.7</ele>
        <time>2022-03-06T16:02:47Z</time>
      </trkpt>
      <trkpt lat="49.13151" lon="7.09662">
        <ele>254.6</ele>
        <time>2022-03-06T16:03:00Z</time>
      </trkpt>
      <trkpt lat="49.13151" lon="7.09662">
        <ele>254.6</ele>
        <time>2022-03-06T16:03:01Z</time>
      </trkpt>
      <trkpt lat="49.13151" lon="7.09662">
        <ele>254.6</ele>
        <time>2022-03-06T16:03:03Z</time>
      </trkpt>
      <trkpt lat="49.13151" lon="7.09662">
        <ele>254.6</ele>
        <time>2022-03-06T16:03:04Z</time>
      </trkpt>
      <trkpt lat="49.13151" lon="7.09664">
        <ele>254.5</ele>
        <time>2022-03-06T16:03:16Z</time>
      </trkpt>
      <trkpt lat="49.13151" lon="7.09664">
        <ele>254.5</ele>
        <time>2022-03-06T16:03:17Z</time>
      </trkpt>
      <trkpt lat="49.13151" lon="7.09664">
        <ele>254.5</ele>
        <time>2022-03-06T16:03:20Z</time>
      </trkpt>
      <trkpt lat="49.13151" lon="7.09663">
        <ele>254.5</ele>
        <time>2022-03-06T16:03:22Z</time>
      </trkpt>
      <trkpt lat="49.13151" lon="7.09663">
        <ele>254.5</ele>
        <time>2022-03-06T16:03:23Z</time>
      </trkpt>
      <trkpt lat="49.13151" lon="7.09663">
        <ele>254.5</ele>
        <time>2022-03-06T16:03:24Z</time>
      </trkpt>
      <trkpt lat="49.13151" lon="7.09663">
        <ele>254.5</ele>
        <time>2022-03-06T16:03:25Z</time>
      </trkpt>
      <trkpt lat="49.13151" lon="7.09662">
        <ele>254.5</ele>
        <time>2022-03-06T16:03:26Z</time>
      </trkpt>
      <trkpt lat="49.13154" lon="7.09663">
        <ele>254.4</ele>
        <time>2022-03-06T16:03:56Z</time>
      </trkpt>
      <trkpt lat="49.13153" lon="7.09663">
        <ele>254.4</ele>
        <time>2022-03-06T16:03:57Z</time>
      </trkpt>
      <trkpt lat="49.13153" lon="7.09663">
        <ele>254.4</ele>
        <time>2022-03-06T16:04:00Z</time>
      </trkpt>
      <trkpt lat="49.13153" lon="7.09663">
        <ele>254.4</ele>
        <time>2022-03-06T16:04:01Z</time>
      </trkpt>
      <trkpt lat="49.13153" lon="7.09663">
        <ele>254.4</ele>
        <time>2022-03-06T16:04:02Z</time>
      </trkpt>
      <trkpt lat="49.13153" lon="7.09663">
        <ele>254.4</ele>
        <time>2022-03-06T16:04:03Z</time>
      </trkpt>
      <trkpt lat="49.13149" lon="7.0965">
        <ele>254</ele>
        <time>2022-03-06T16:04:34Z</time>
      </trkpt>
      <trkpt lat="49.13142" lon="7.0964">
        <ele>253.6</ele>
        <time>2022-03-06T16:04:42Z</time>
      </trkpt>
      <trkpt lat="49.13134" lon="7.0963">
        <ele>253.1</ele>
        <time>2022-03-06T16:04:51Z</time>
      </trkpt>
      <trkpt lat="49.13126" lon="7.09621">
        <ele>252.5</ele>
        <time>2022-03-06T16:04:58Z</time>
      </trkpt>
      <trkpt lat="49.13117" lon="7.09615">
        <ele>252</ele>
        <time>2022-03-06T16:05:05Z</time>
      </trkpt>
      <trkpt lat="49.1311" lon="7.09607">
        <ele>251.5</ele>
        <time>2022-03-06T16:05:12Z</time>
      </trkpt>
      <trkpt lat="49.13102" lon="7.09599">
        <ele>251</ele>
        <time>2022-03-06T16:05:19Z</time>
      </trkpt>
      <trkpt lat="49.13094" lon="7.09592">
        <ele>250.6</ele>
        <time>2022-03-06T16:05:27Z</time>
      </trkpt>
      <trkpt lat="49.13086" lon="7.09584">
        <ele>250.1</ele>
        <time>2022-03-06T16:05:34Z</time>
      </trkpt>
      <trkpt lat="49.13079" lon="7.09574">
        <ele>249.8</ele>
        <time>2022-03-06T16:05:42Z</time>
      </trkpt>
      <trkpt lat="49.13071" lon="7.09567">
        <ele>249.5</ele>
        <time>2022-03-06T16:05:50Z</time>
      </trkpt>
      <trkpt lat="49.13063" lon="7.09558">
        <ele>249.3</ele>
        <time>2022-03-06T16:05:56Z</time>
      </trkpt>
      <trkpt lat="49.13055" lon="7.09549">
        <ele>249.1</ele>
        <time>2022-03-06T16:06:06Z</time>
      </trkpt>
      <trkpt lat="49.13047" lon="7.0954">
        <ele>249</ele>
        <time>2022-03-06T16:06:13Z</time>
      </trkpt>
      <trkpt lat="49.13041" lon="7.09528">
        <ele>248.9</ele>
        <time>2022-03-06T16:06:20Z</time>
      </trkpt>
      <trkpt lat="49.13035" lon="7.09517">
        <ele>248.9</ele>
        <time>2022-03-06T16:06:27Z</time>
      </trkpt>
      <trkpt lat="49.1303" lon="7.09505">
        <ele>249</ele>
        <time>2022-03-06T16:06:34Z</time>
      </trkpt>
      <trkpt lat="49.13025" lon="7.09493">
        <ele>249.1</ele>
        <time>2022-03-06T16:06:41Z</time>
      </trkpt>
      <trkpt lat="49.13022" lon="7.0948">
        <ele>249.2</ele>
        <time>2022-03-06T16:06:50Z</time>
      </trkpt>
      <trkpt lat="49.13018" lon="7.09467">
        <ele>249.4</ele>
        <time>2022-03-06T16:06:59Z</time>
      </trkpt>
      <trkpt lat="49.13015" lon="7.09454">
        <ele>249.5</ele>
        <time>2022-03-06T16:07:08Z</time>
      </trkpt>
      <trkpt lat="49.13016" lon="7.09452">
        <ele>249.6</ele>
        <time>2022-03-06T16:07:15Z</time>
      </trkpt>
      <trkpt lat="49.13016" lon="7.09451">
        <ele>249.6</ele>
        <time>2022-03-06T16:07:16Z</time>
      </trkpt>
      <trkpt lat="49.1301" lon="7.09439">
        <ele>249.8</ele>
        <time>2022-03-06T16:07:28Z</time>
      </trkpt>
      <trkpt lat="49.13005" lon="7.09427">
        <ele>250</ele>
        <time>2022-03-06T16:07:35Z</time>
      </trkpt>
      <trkpt lat="49.13001" lon="7.09415">
        <ele>250.1</ele>
        <time>2022-03-06T16:07:44Z</time>
      </trkpt>
      <trkpt lat="49.12994" lon="7.09406">
        <ele>250.3</ele>
        <time>2022-03-06T16:07:50Z</time>
      </trkpt>
      <trkpt lat="49.12989" lon="7.09393">
        <ele>250.4</ele>
        <time>2022-03-06T16:07:56Z</time>
      </trkpt>
      <trkpt lat="49.12984" lon="7.0938">
        <ele>250.4</ele>
        <time>2022-03-06T16:08:06Z</time>
      </trkpt>
      <trkpt lat="49.12978" lon="7.09369">
        <ele>250.5</ele>
        <time>2022-03-06T16:08:13Z</time>
      </trkpt>
      <trkpt lat="49.12971" lon="7.09361">
        <ele>250.5</ele>
        <time>2022-03-06T16:08:20Z</time>
      </trkpt>
      <trkpt lat="49.12965" lon="7.09348">
        <ele>250.5</ele>
        <time>2022-03-06T16:08:29Z</time>
      </trkpt>
      <trkpt lat="49.12958" lon="7.09338">
        <ele>250.4</ele>
        <time>2022-03-06T16:08:35Z</time>
      </trkpt>
      <trkpt lat="49.12953" lon="7.09327">
        <ele>250.3</ele>
        <time>2022-03-06T16:08:43Z</time>
      </trkpt>
      <trkpt lat="49.12946" lon="7.09317">
        <ele>250.2</ele>
        <time>2022-03-06T16:08:49Z</time>
      </trkpt>
      <trkpt lat="49.12939" lon="7.09307">
        <ele>250</ele>
        <time>2022-03-06T16:08:55Z</time>
      </trkpt>
      <trkpt lat="49.12934" lon="7.09295">
        <ele>249.9</ele>
        <time>2022-03-06T16:09:04Z</time>
      </trkpt>
      <trkpt lat="49.12927" lon="7.09286">
        <ele>249.7</ele>
        <time>2022-03-06T16:09:11Z</time>
      </trkpt>
      <trkpt lat="49.12921" lon="7.09275">
        <ele>249.6</ele>
        <time>2022-03-06T16:09:19Z</time>
      </trkpt>
      <trkpt lat="49.12914" lon="7.09266">
        <ele>249.4</ele>
        <time>2022-03-06T16:09:27Z</time>
      </trkpt>
      <trkpt lat="49.12907" lon="7.09254">
        <ele>249.1</ele>
        <time>2022-03-06T16:09:36Z</time>
      </trkpt>
      <trkpt lat="49.12899" lon="7.09244">
        <ele>248.9</ele>
        <time>2022-03-06T16:09:44Z</time>
      </trkpt>
      <trkpt lat="49.12895" lon="7.09231">
        <ele>248.7</ele>
        <time>2022-03-06T16:09:52Z</time>
      </trkpt>
      <trkpt lat="49.12887" lon="7.09222">
        <ele>248.6</ele>
        <time>2022-03-06T16:10:01Z</time>
      </trkpt>
      <trkpt lat="49.12879" lon="7.09215">
        <ele>248.5</ele>
        <time>2022-03-06T16:10:08Z</time>
      </trkpt>
      <trkpt lat="49.12872" lon="7.09204">
        <ele>248.3</ele>
        <time>2022-03-06T16:10:16Z</time>
      </trkpt>
      <trkpt lat="49.12867" lon="7.09192">
        <ele>248.1</ele>
        <time>2022-03-06T16:10:24Z</time>
      </trkpt>
      <trkpt lat="49.1286" lon="7.09183">
        <ele>247.8</ele>
        <time>2022-03-06T16:10:31Z</time>
      </trkpt>
      <trkpt lat="49.12852" lon="7.09174">
        <ele>247.6</ele>
        <time>2022-03-06T16:10:39Z</time>
      </trkpt>
      <trkpt lat="49.12847" lon="7.09163">
        <ele>247.4</ele>
        <time>2022-03-06T16:10:49Z</time>
      </trkpt>
      <trkpt lat="49.12841" lon="7.09151">
        <ele>247.2</ele>
        <time>2022-03-06T16:10:57Z</time>
      </trkpt>
      <trkpt lat="49.12833" lon="7.09144">
        <ele>246.9</ele>
        <time>2022-03-06T16:11:05Z</time>
      </trkpt>
      <trkpt lat="49.12825" lon="7.09137">
        <ele>246.7</ele>
        <time>2022-03-06T16:11:12Z</time>
      </trkpt>
      <trkpt lat="49.1282" lon="7.09124">
        <ele>246.5</ele>
        <time>2022-03-06T16:11:23Z</time>
      </trkpt>
      <trkpt lat="49.12814" lon="7.09113">
        <ele>246.2</ele>
        <time>2022-03-06T16:11:31Z</time>
      </trkpt>
      <trkpt lat="49.12806" lon="7.09103">
        <ele>246</ele>
        <time>2022-03-06T16:11:39Z</time>
      </trkpt>
      <trkpt lat="49.12799" lon="7.09092">
        <ele>245.8</ele>
        <time>2022-03-06T16:11:46Z</time>
      </trkpt>
      <trkpt lat="49.12792" lon="7.09082">
        <ele>245.6</ele>
        <time>2022-03-06T16:11:55Z</time>
      </trkpt>
      <trkpt lat="49.12786" lon="7.09071">
        <ele>245.4</ele>
        <time>2022-03-06T16:12:02Z</time>
      </trkpt>
      <trkpt lat="49.12781" lon="7.09059">
        <ele>245.2</ele>
        <time>2022-03-06T16:12:10Z</time>
      </trkpt>
      <trkpt lat="49.12774" lon="7.09049">
        <ele>245</ele>
        <time>2022-03-06T16:12:16Z</time>
      </trkpt>
      <trkpt lat="49.12769" lon="7.09036">
        <ele>244.8</ele>
        <time>2022-03-06T16:12:23Z</time>
      </trkpt>
      <trkpt lat="49.12765" lon="7.09023">
        <ele>244.6</ele>
        <time>2022-03-06T16:12:31Z</time>
      </trkpt>
      <trkpt lat="49.12758" lon="7.09013">
        <ele>244.4</ele>
        <time>2022-03-06T16:12:40Z</time>
      </trkpt>
      <trkpt lat="49.1275" lon="7.09005">
        <ele>244.3</ele>
        <time>2022-03-06T16:12:47Z</time>
      </trkpt>
      <trkpt lat="49.12742" lon="7.08997">
        <ele>244.1</ele>
        <time>2022-03-06T16:12:54Z</time>
      </trkpt>
      <trkpt lat="49.12736" lon="7.08987">
        <ele>244</ele>
        <time>2022-03-06T16:13:02Z</time>
      </trkpt>
      <trkpt lat="49.12729" lon="7.08978">
        <ele>243.8</ele>
        <time>2022-03-06T16:13:10Z</time>
      </trkpt>
      <trkpt lat="49.12722" lon="7.08968">
        <ele>243.7</ele>
        <time>2022-03-06T16:13:18Z</time>
      </trkpt>
      <trkpt lat="49.12714" lon="7.08957">
        <ele>243.6</ele>
        <time>2022-03-06T16:13:26Z</time>
      </trkpt>
      <trkpt lat="49.12709" lon="7.08945">
        <ele>243.3</ele>
        <time>2022-03-06T16:13:35Z</time>
      </trkpt>
      <trkpt lat="49.12702" lon="7.08935">
        <ele>243.1</ele>
        <time>2022-03-06T16:13:45Z</time>
      </trkpt>
      <trkpt lat="49.12693" lon="7.08929">
        <ele>242.9</ele>
        <time>2022-03-06T16:13:54Z</time>
      </trkpt>
      <trkpt lat="49.12686" lon="7.0892">
        <ele>242.6</ele>
        <time>2022-03-06T16:14:03Z</time>
      </trkpt>
      <trkpt lat="49.12678" lon="7.0891">
        <ele>242.4</ele>
        <time>2022-03-06T16:14:14Z</time>
      </trkpt>
      <trkpt lat="49.12669" lon="7.08902">
        <ele>242.1</ele>
        <time>2022-03-06T16:14:22Z</time>
      </trkpt>
      <trkpt lat="49.12662" lon="7.08894">
        <ele>241.8</ele>
        <time>2022-03-06T16:14:29Z</time>
      </trkpt>
      <trkpt lat="49.12654" lon="7.08886">
        <ele>241.6</ele>
        <time>2022-03-06T16:14:37Z</time>
      </trkpt>
      <trkpt lat="49.12646" lon="7.0888">
        <ele>241.3</ele>
        <time>2022-03-06T16:14:46Z</time>
      </trkpt>
      <trkpt lat="49.12637" lon="7.08874">
        <ele>241</ele>
        <time>2022-03-06T16:14:53Z</time>
      </trkpt>
      <trkpt lat="49.12629" lon="7.08867">
        <ele>240.8</ele>
        <time>2022-03-06T16:15:02Z</time>
      </trkpt>
      <trkpt lat="49.12622" lon="7.08857">
        <ele>240.6</ele>
        <time>2022-03-06T16:15:11Z</time>
      </trkpt>
      <trkpt lat="49.12613" lon="7.08851">
        <ele>240.3</ele>
        <time>2022-03-06T16:15:18Z</time>
      </trkpt>
      <trkpt lat="49.12604" lon="7.08847">
        <ele>240.1</ele>
        <time>2022-03-06T16:15:26Z</time>
      </trkpt>
      <trkpt lat="49.12596" lon="7.08841">
        <ele>239.8</ele>
        <time>2022-03-06T16:15:33Z</time>
      </trkpt>
      <trkpt lat="49.12588" lon="7.08833">
        <ele>239.6</ele>
        <time>2022-03-06T16:15:43Z</time>
      </trkpt>
      <trkpt lat="49.1258" lon="7.08826">
        <ele>239.4</ele>
        <time>2022-03-06T16:15:51Z</time>
      </trkpt>
      <trkpt lat="49.12572" lon="7.08816">
        <ele>239.2</ele>
        <time>2022-03-06T16:15:59Z</time>
      </trkpt>
      <trkpt lat="49.12564" lon="7.08808">
        <ele>239</ele>
        <time>2022-03-06T16:16:07Z</time>
      </trkpt>
      <trkpt lat="49.12557" lon="7.08797">
        <ele>238.7</ele>
        <time>2022-03-06T16:16:16Z</time>
      </trkpt>
      <trkpt lat="49.12549" lon="7.0879">
        <ele>238.5</ele>
        <time>2022-03-06T16:16:25Z</time>
      </trkpt>
      <trkpt lat="49.12541" lon="7.08782">
        <ele>238.3</ele>
        <time>2022-03-06T16:16:35Z</time>
      </trkpt>
      <trkpt lat="49.12534" lon="7.08772">
        <ele>238.1</ele>
        <time>2022-03-06T16:16:43Z</time>
      </trkpt>
      <trkpt lat="49.12525" lon="7.08766">
        <ele>237.9</ele>
        <time>2022-03-06T16:16:51Z</time>
      </trkpt>
      <trkpt lat="49.12516" lon="7.08759">
        <ele>237.7</ele>
        <time>2022-03-06T16:16:58Z</time>
      </trkpt>
      <trkpt lat="49.12508" lon="7.08753">
        <ele>237.4</ele>
        <time>2022-03-06T16:17:04Z</time>
      </trkpt>
      <trkpt lat="49.12499" lon="7.08746">
        <ele>237.2</ele>
        <time>2022-03-06T16:17:12Z</time>
      </trkpt>
      <trkpt lat="49.1249" lon="7.08739">
        <ele>237</ele>
        <time>2022-03-06T16:17:21Z</time>
      </trkpt>
      <trkpt lat="49.12482" lon="7.08734">
        <ele>236.8</ele>
        <time>2022-03-06T16:17:29Z</time>
      </trkpt>
      <trkpt lat="49.12475" lon="7.08724">
        <ele>236.6</ele>
        <time>2022-03-06T16:17:38Z</time>
      </trkpt>
      <trkpt lat="49.1247" lon="7.08712">
        <ele>236.4</ele>
        <time>2022-03-06T16:17:45Z</time>
      </trkpt>
      <trkpt lat="49.12464" lon="7.08701">
        <ele>236.2</ele>
        <time>2022-03-06T16:17:54Z</time>
      </trkpt>
      <trkpt lat="49.12458" lon="7.0869">
        <ele>236</ele>
        <time>2022-03-06T16:18:04Z</time>
      </trkpt>
      <trkpt lat="49.12451" lon="7.0868">
        <ele>235.8</ele>
        <time>2022-03-06T16:18:12Z</time>
      </trkpt>
      <trkpt lat="49.12443" lon="7.0867">
        <ele>235.5</ele>
        <time>2022-03-06T16:18:21Z</time>
      </trkpt>
      <trkpt lat="49.12436" lon="7.08659">
        <ele>235.3</ele>
        <time>2022-03-06T16:18:29Z</time>
      </trkpt>
      <trkpt lat="49.12429" lon="7.0865">
        <ele>235.1</ele>
        <time>2022-03-06T16:18:37Z</time>
      </trkpt>
      <trkpt lat="49.12423" lon="7.08638">
        <ele>234.9</ele>
        <time>2022-03-06T16:18:44Z</time>
      </trkpt>
      <trkpt lat="49.12416" lon="7.08627">
        <ele>234.7</ele>
        <time>2022-03-06T16:18:50Z</time>
      </trkpt>
      <trkpt lat="49.12409" lon="7.08616">
        <ele>234.5</ele>
        <time>2022-03-06T16:18:59Z</time>
      </trkpt>
      <trkpt lat="49.12403" lon="7.08604">
        <ele>234.3</ele>
        <time>2022-03-06T16:19:06Z</time>
      </trkpt>
      <trkpt lat="49.12397" lon="7.08593">
        <ele>234.1</ele>
        <time>2022-03-06T16:19:13Z</time>
      </trkpt>
      <trkpt lat="49.12392" lon="7.0858">
        <ele>234</ele>
        <time>2022-03-06T16:19:22Z</time>
      </trkpt>
      <trkpt lat="49.12384" lon="7.08572">
        <ele>233.8</ele>
        <time>2022-03-06T16:19:34Z</time>
      </trkpt>
      <trkpt lat="49.12379" lon="7.0856">
        <ele>233.6</ele>
        <time>2022-03-06T16:19:41Z</time>
      </trkpt>
      <trkpt lat="49.12374" lon="7.08547">
        <ele>233.3</ele>
        <time>2022-03-06T16:19:51Z</time>
      </trkpt>
      <trkpt lat="49.12367" lon="7.08536">
        <ele>233.1</ele>
        <time>2022-03-06T16:19:58Z</time>
      </trkpt>
      <trkpt lat="49.12361" lon="7.08524">
        <ele>232.9</ele>
        <time>2022-03-06T16:20:06Z</time>
      </trkpt>
      <trkpt lat="49.12353" lon="7.08515">
        <ele>232.6</ele>
        <time>2022-03-06T16:20:15Z</time>
      </trkpt>
      <trkpt lat="49.12346" lon="7.08506">
        <ele>232.4</ele>
        <time>2022-03-06T16:20:22Z</time>
      </trkpt>
      <trkpt lat="49.12339" lon="7.08496">
        <ele>232.2</ele>
        <time>2022-03-06T16:20:29Z</time>
      </trkpt>
      <trkpt lat="49.12334" lon="7.08485">
        <ele>232</ele>
        <time>2022-03-06T16:20:37Z</time>
      </trkpt>
      <trkpt lat="49.12327" lon="7.08473">
        <ele>231.8</ele>
        <time>2022-03-06T16:20:45Z</time>
      </trkpt>
      <trkpt lat="49.1232" lon="7.08465">
        <ele>231.6</ele>
        <time>2022-03-06T16:20:54Z</time>
      </trkpt>
      <trkpt lat="49.12311" lon="7.08458">
        <ele>231.4</ele>
        <time>2022-03-06T16:21:04Z</time>
      </trkpt>
      <trkpt lat="49.12304" lon="7.08449">
        <ele>231.2</ele>
        <time>2022-03-06T16:21:15Z</time>
      </trkpt>
      <trkpt lat="49.12298" lon="7.08436">
        <ele>231</ele>
        <time>2022-03-06T16:21:22Z</time>
      </trkpt>
      <trkpt lat="49.12291" lon="7.08425">
        <ele>230.9</ele>
        <time>2022-03-06T16:21:29Z</time>
      </trkpt>
      <trkpt lat="49.12289" lon="7.08411">
        <ele>230.9</ele>
        <time>2022-03-06T16:21:36Z</time>
      </trkpt>
      <trkpt lat="49.12288" lon="7.08397">
        <ele>230.9</ele>
        <time>2022-03-06T16:21:42Z</time>
      </trkpt>
      <trkpt lat="49.12289" lon="7.08382">
        <ele>230.8</ele>
        <time>2022-03-06T16:21:52Z</time>
      </trkpt>
      <trkpt lat="49.12291" lon="7.08376">
        <ele>230.7</ele>
        <time>2022-03-06T16:22:11Z</time>
      </trkpt>
      <trkpt lat="49.1229" lon="7.08376">
        <ele>230.7</ele>
        <time>2022-03-06T16:22:12Z</time>
      </trkpt>
      <trkpt lat="49.12293" lon="7.08362">
        <ele>230.6</ele>
        <time>2022-03-06T16:22:33Z</time>
      </trkpt>
      <trkpt lat="49.12302" lon="7.08355">
        <ele>230.5</ele>
        <time>2022-03-06T16:22:45Z</time>
      </trkpt>
      <trkpt lat="49.12305" lon="7.08341">
        <ele>230.4</ele>
        <time>2022-03-06T16:22:54Z</time>
      </trkpt>
      <trkpt lat="49.12306" lon="7.08327">
        <ele>230.2</ele>
        <time>2022-03-06T16:23:01Z</time>
      </trkpt>
      <trkpt lat="49.12308" lon="7.08313">
        <ele>230</ele>
        <time>2022-03-06T16:23:08Z</time>
      </trkpt>
      <trkpt lat="49.12312" lon="7.08301">
        <ele>229.8</ele>
        <time>2022-03-06T16:23:14Z</time>
      </trkpt>
      <trkpt lat="49.12313" lon="7.08286">
        <ele>229.5</ele>
        <time>2022-03-06T16:23:20Z</time>
      </trkpt>
      <trkpt lat="49.12315" lon="7.08271">
        <ele>229.2</ele>
        <time>2022-03-06T16:23:28Z</time>
      </trkpt>
      <trkpt lat="49.12324" lon="7.08266">
        <ele>228.9</ele>
        <time>2022-03-06T16:23:34Z</time>
      </trkpt>
      <trkpt lat="49.12331" lon="7.08257">
        <ele>228.6</ele>
        <time>2022-03-06T16:23:40Z</time>
      </trkpt>
      <trkpt lat="49.12334" lon="7.08242">
        <ele>228.3</ele>
        <time>2022-03-06T16:23:47Z</time>
      </trkpt>
      <trkpt lat="49.12333" lon="7.08227">
        <ele>228</ele>
        <time>2022-03-06T16:23:54Z</time>
      </trkpt>
      <trkpt lat="49.12337" lon="7.08212">
        <ele>227.6</ele>
        <time>2022-03-06T16:24:00Z</time>
      </trkpt>
      <trkpt lat="49.1234" lon="7.08198">
        <ele>227.3</ele>
        <time>2022-03-06T16:24:07Z</time>
      </trkpt>
      <trkpt lat="49.1234" lon="7.08184">
        <ele>227</ele>
        <time>2022-03-06T16:24:15Z</time>
      </trkpt>
      <trkpt lat="49.12338" lon="7.08169">
        <ele>226.6</ele>
        <time>2022-03-06T16:24:23Z</time>
      </trkpt>
      <trkpt lat="49.1234" lon="7.08153">
        <ele>226.2</ele>
        <time>2022-03-06T16:24:32Z</time>
      </trkpt>
      <trkpt lat="49.12343" lon="7.0814">
        <ele>225.8</ele>
        <time>2022-03-06T16:24:38Z</time>
      </trkpt>
      <trkpt lat="49.12347" lon="7.08127">
        <ele>225.5</ele>
        <time>2022-03-06T16:24:46Z</time>
      </trkpt>
      <trkpt lat="49.12351" lon="7.08113">
        <ele>225.1</ele>
        <time>2022-03-06T16:24:55Z</time>
      </trkpt>
      <trkpt lat="49.12355" lon="7.081">
        <ele>224.8</ele>
        <time>2022-03-06T16:25:02Z</time>
      </trkpt>
      <trkpt lat="49.12356" lon="7.08085">
        <ele>224.4</ele>
        <time>2022-03-06T16:25:13Z</time>
      </trkpt>
      <trkpt lat="49.12359" lon="7.08072">
        <ele>224</ele>
        <time>2022-03-06T16:25:21Z</time>
      </trkpt>
      <trkpt lat="49.1236" lon="7.08058">
        <ele>223.5</ele>
        <time>2022-03-06T16:25:30Z</time>
      </trkpt>
      <trkpt lat="49.12365" lon="7.08045">
        <ele>223</ele>
        <time>2022-03-06T16:25:39Z</time>
      </trkpt>
      <trkpt lat="49.12369" lon="7.08029">
        <ele>222.3</ele>
        <time>2022-03-06T16:25:47Z</time>
      </trkpt>
      <trkpt lat="49.12373" lon="7.08017">
        <ele>221.6</ele>
        <time>2022-03-06T16:25:52Z</time>
      </trkpt>
      <trkpt lat="49.1238" lon="7.08008">
        <ele>221</ele>
        <time>2022-03-06T16:25:59Z</time>
      </trkpt>
      <trkpt lat="49.12386" lon="7.07996">
        <ele>220.3</ele>
        <time>2022-03-06T16:26:05Z</time>
      </trkpt>
      <trkpt lat="49.12393" lon="7.07987">
        <ele>219.6</ele>
        <time>2022-03-06T16:26:14Z</time>
      </trkpt>
      <trkpt lat="49.124" lon="7.07977">
        <ele>218.8</ele>
        <time>2022-03-06T16:26:22Z</time>
      </trkpt>
      <trkpt lat="49.1241" lon="7.07973">
        <ele>217.9</ele>
        <time>2022-03-06T16:26:28Z</time>
      </trkpt>
      <trkpt lat="49.12417" lon="7.07963">
        <ele>217.1</ele>
        <time>2022-03-06T16:26:37Z</time>
      </trkpt>
      <trkpt lat="49.12422" lon="7.0795">
        <ele>216.2</ele>
        <time>2022-03-06T16:26:44Z</time>
      </trkpt>
      <trkpt lat="49.12423" lon="7.07934">
        <ele>215.3</ele>
        <time>2022-03-06T16:26:51Z</time>
      </trkpt>
      <trkpt lat="49.12429" lon="7.07922">
        <ele>214.5</ele>
        <time>2022-03-06T16:26:58Z</time>
      </trkpt>
      <trkpt lat="49.12433" lon="7.07909">
        <ele>213.8</ele>
        <time>2022-03-06T16:27:13Z</time>
      </trkpt>
      <trkpt lat="49.12438" lon="7.07896">
        <ele>213.3</ele>
        <time>2022-03-06T16:27:20Z</time>
      </trkpt>
      <trkpt lat="49.12444" lon="7.07887">
        <ele>212.7</ele>
        <time>2022-03-06T16:27:28Z</time>
      </trkpt>
      <trkpt lat="49.12453" lon="7.07879">
        <ele>212.1</ele>
        <time>2022-03-06T16:27:36Z</time>
      </trkpt>
      <trkpt lat="49.12461" lon="7.0787">
        <ele>211.3</ele>
        <time>2022-03-06T16:27:43Z</time>
      </trkpt>
      <trkpt lat="49.12468" lon="7.0786">
        <ele>210.6</ele>
        <time>2022-03-06T16:27:48Z</time>
      </trkpt>
      <trkpt lat="49.12475" lon="7.07849">
        <ele>209.9</ele>
        <time>2022-03-06T16:27:57Z</time>
      </trkpt>
      <trkpt lat="49.12479" lon="7.07837">
        <ele>209.3</ele>
        <time>2022-03-06T16:28:07Z</time>
      </trkpt>
      <trkpt lat="49.12487" lon="7.0783">
        <ele>208.7</ele>
        <time>2022-03-06T16:28:16Z</time>
      </trkpt>
      <trkpt lat="49.12496" lon="7.07822">
        <ele>208</ele>
        <time>2022-03-06T16:28:22Z</time>
      </trkpt>
      <trkpt lat="49.12505" lon="7.07817">
        <ele>207.3</ele>
        <time>2022-03-06T16:28:29Z</time>
      </trkpt>
      <trkpt lat="49.12514" lon="7.07809">
        <ele>206.6</ele>
        <time>2022-03-06T16:28:37Z</time>
      </trkpt>
      <trkpt lat="49.12523" lon="7.07803">
        <ele>205.9</ele>
        <time>2022-03-06T16:28:42Z</time>
      </trkpt>
      <trkpt lat="49.1253" lon="7.07795">
        <ele>205.3</ele>
        <time>2022-03-06T16:28:50Z</time>
      </trkpt>
      <trkpt lat="49.12539" lon="7.07788">
        <ele>204.8</ele>
        <time>2022-03-06T16:28:59Z</time>
      </trkpt>
      <trkpt lat="49.12544" lon="7.07775">
        <ele>204.2</ele>
        <time>2022-03-06T16:29:09Z</time>
      </trkpt>
      <trkpt lat="49.12547" lon="7.07762">
        <ele>203.7</ele>
        <time>2022-03-06T16:29:19Z</time>
      </trkpt>
      <trkpt lat="49.12546" lon="7.07746">
        <ele>203.5</ele>
        <time>2022-03-06T16:29:27Z</time>
      </trkpt>
      <trkpt lat="49.12541" lon="7.07732">
        <ele>203.4</ele>
        <time>2022-03-06T16:29:33Z</time>
      </trkpt>
      <trkpt lat="49.12537" lon="7.07717">
        <ele>203.3</ele>
        <time>2022-03-06T16:29:40Z</time>
      </trkpt>
      <trkpt lat="49.12531" lon="7.07705">
        <ele>203.2</ele>
        <time>2022-03-06T16:29:50Z</time>
      </trkpt>
      <trkpt lat="49.12526" lon="7.07691">
        <ele>203.1</ele>
        <time>2022-03-06T16:29:57Z</time>
      </trkpt>
      <trkpt lat="49.12523" lon="7.07677">
        <ele>203.1</ele>
        <time>2022-03-06T16:30:02Z</time>
      </trkpt>
      <trkpt lat="49.12517" lon="7.07666">
        <ele>203</ele>
        <time>2022-03-06T16:30:09Z</time>
      </trkpt>
      <trkpt lat="49.12511" lon="7.07654">
        <ele>203</ele>
        <time>2022-03-06T16:30:16Z</time>
      </trkpt>
      <trkpt lat="49.12505" lon="7.07643">
        <ele>202.9</ele>
        <time>2022-03-06T16:30:27Z</time>
      </trkpt>
      <trkpt lat="49.12511" lon="7.07632">
        <ele>202.2</ele>
        <time>2022-03-06T16:30:38Z</time>
      </trkpt>
      <trkpt lat="49.12517" lon="7.0762">
        <ele>201.8</ele>
        <time>2022-03-06T16:30:48Z</time>
      </trkpt>
      <trkpt lat="49.12524" lon="7.0761">
        <ele>201.5</ele>
        <time>2022-03-06T16:30:54Z</time>
      </trkpt>
      <trkpt lat="49.12531" lon="7.07602">
        <ele>201.2</ele>
        <time>2022-03-06T16:30:58Z</time>
      </trkpt>
      <trkpt lat="49.12537" lon="7.07592">
        <ele>200.8</ele>
        <time>2022-03-06T16:31:05Z</time>
      </trkpt>
      <trkpt lat="49.12544" lon="7.07581">
        <ele>200.6</ele>
        <time>2022-03-06T16:31:15Z</time>
      </trkpt>
      <trkpt lat="49.1255" lon="7.0757">
        <ele>200.5</ele>
        <time>2022-03-06T16:31:24Z</time>
      </trkpt>
      <trkpt lat="49.12553" lon="7.07557">
        <ele>200.4</ele>
        <time>2022-03-06T16:31:41Z</time>
      </trkpt>
      <trkpt lat="49.12547" lon="7.07567">
        <ele>200.3</ele>
        <time>2022-03-06T16:32:32Z</time>
      </trkpt>
      <trkpt lat="49.12545" lon="7.07569">
        <ele>200.3</ele>
        <time>2022-03-06T16:32:36Z</time>
      </trkpt>
      <trkpt lat="49.12544" lon="7.07569">
        <ele>200.3</ele>
        <time>2022-03-06T16:32:37Z</time>
      </trkpt>
      <trkpt lat="49.1255" lon="7.07559">
        <ele>200.2</ele>
        <time>2022-03-06T16:32:49Z</time>
      </trkpt>
      <trkpt lat="49.12553" lon="7.07544">
        <ele>200.1</ele>
        <time>2022-03-06T16:33:01Z</time>
      </trkpt>
      <trkpt lat="49.12562" lon="7.07543">
        <ele>200</ele>
        <time>2022-03-06T16:33:18Z</time>
      </trkpt>
      <trkpt lat="49.12565" lon="7.07529">
        <ele>199.9</ele>
        <time>2022-03-06T16:33:23Z</time>
      </trkpt>
      <trkpt lat="49.12568" lon="7.07515">
        <ele>200.6</ele>
        <time>2022-03-06T16:33:42Z</time>
      </trkpt>
      <trkpt lat="49.12564" lon="7.0753">
        <ele>200.4</ele>
        <time>2022-03-06T16:33:46Z</time>
      </trkpt>
      <trkpt lat="49.12566" lon="7.07514">
        <ele>200.9</ele>
        <time>2022-03-06T16:34:06Z</time>
      </trkpt>
      <trkpt lat="49.12572" lon="7.07504">
        <ele>201.4</ele>
        <time>2022-03-06T16:34:24Z</time>
      </trkpt>
      <trkpt lat="49.12579" lon="7.07494">
        <ele>201.8</ele>
        <time>2022-03-06T16:34:36Z</time>
      </trkpt>
      <trkpt lat="49.12587" lon="7.0749">
        <ele>202</ele>
        <time>2022-03-06T16:34:45Z</time>
      </trkpt>
      <trkpt lat="49.12599" lon="7.07489">
        <ele>202.2</ele>
        <time>2022-03-06T16:34:49Z</time>
      </trkpt>
      <trkpt lat="49.12608" lon="7.07482">
        <ele>202.4</ele>
        <time>2022-03-06T16:34:54Z</time>
      </trkpt>
      <trkpt lat="49.12617" lon="7.07477">
        <ele>202.6</ele>
        <time>2022-03-06T16:35:05Z</time>
      </trkpt>
      <trkpt lat="49.12655" lon="7.07497">
        <ele>203.5</ele>
        <time>2022-03-06T16:35:32Z</time>
      </trkpt>
      <trkpt lat="49.12666" lon="7.07502">
        <ele>203.6</ele>
        <time>2022-03-06T16:35:41Z</time>
      </trkpt>
      <trkpt lat="49.12673" lon="7.07513">
        <ele>203.6</ele>
        <time>2022-03-06T16:35:50Z</time>
      </trkpt>
      <trkpt lat="49.12678" lon="7.07527">
        <ele>203.7</ele>
        <time>2022-03-06T16:35:55Z</time>
      </trkpt>
      <trkpt lat="49.12681" lon="7.07541">
        <ele>203.7</ele>
        <time>2022-03-06T16:36:07Z</time>
      </trkpt>
      <trkpt lat="49.12677" lon="7.07555">
        <ele>203.6</ele>
        <time>2022-03-06T16:36:17Z</time>
      </trkpt>
      <trkpt lat="49.1268" lon="7.07569">
        <ele>203.5</ele>
        <time>2022-03-06T16:36:29Z</time>
      </trkpt>
      <trkpt lat="49.12678" lon="7.07585">
        <ele>203.4</ele>
        <time>2022-03-06T16:36:34Z</time>
      </trkpt>
      <trkpt lat="49.12679" lon="7.07598">
        <ele>203.2</ele>
        <time>2022-03-06T16:36:42Z</time>
      </trkpt>
      <trkpt lat="49.12678" lon="7.07613">
        <ele>203.1</ele>
        <time>2022-03-06T16:36:48Z</time>
      </trkpt>
      <trkpt lat="49.12676" lon="7.07627">
        <ele>203</ele>
        <time>2022-03-06T16:36:54Z</time>
      </trkpt>
      <trkpt lat="49.12682" lon="7.07638">
        <ele>202.9</ele>
        <time>2022-03-06T16:36:59Z</time>
      </trkpt>
      <trkpt lat="49.1269" lon="7.07648">
        <ele>202.8</ele>
        <time>2022-03-06T16:37:09Z</time>
      </trkpt>
      <trkpt lat="49.12695" lon="7.07659">
        <ele>202.7</ele>
        <time>2022-03-06T16:37:16Z</time>
      </trkpt>
      <trkpt lat="49.127" lon="7.07671">
        <ele>202.6</ele>
        <time>2022-03-06T16:37:22Z</time>
      </trkpt>
      <trkpt lat="49.12708" lon="7.07679">
        <ele>202.5</ele>
        <time>2022-03-06T16:37:26Z</time>
      </trkpt>
      <trkpt lat="49.12708" lon="7.07693">
        <ele>202.5</ele>
        <time>2022-03-06T16:37:37Z</time>
      </trkpt>
      <trkpt lat="49.12715" lon="7.07704">
        <ele>202.4</ele>
        <time>2022-03-06T16:37:43Z</time>
      </trkpt>
      <trkpt lat="49.12719" lon="7.07718">
        <ele>202.3</ele>
        <time>2022-03-06T16:37:50Z</time>
      </trkpt>
      <trkpt lat="49.12725" lon="7.07729">
        <ele>202.2</ele>
        <time>2022-03-06T16:37:59Z</time>
      </trkpt>
      <trkpt lat="49.12734" lon="7.07732">
        <ele>202.1</ele>
        <time>2022-03-06T16:38:03Z</time>
      </trkpt>
      <trkpt lat="49.12741" lon="7.07742">
        <ele>202</ele>
        <time>2022-03-06T16:38:11Z</time>
      </trkpt>
      <trkpt lat="49.12737" lon="7.07755">
        <ele>201.9</ele>
        <time>2022-03-06T16:38:17Z</time>
      </trkpt>
      <trkpt lat="49.12734" lon="7.07768">
        <ele>201.8</ele>
        <time>2022-03-06T16:38:24Z</time>
      </trkpt>
      <trkpt lat="49.12731" lon="7.07782">
        <ele>201.7</ele>
        <time>2022-03-06T16:38:30Z</time>
      </trkpt>
      <trkpt lat="49.12732" lon="7.07798">
        <ele>201.7</ele>
        <time>2022-03-06T16:38:38Z</time>
      </trkpt>
      <trkpt lat="49.12735" lon="7.07812">
        <ele>201.6</ele>
        <time>2022-03-06T16:38:46Z</time>
      </trkpt>
      <trkpt lat="49.12746" lon="7.07823">
        <ele>201.5</ele>
        <time>2022-03-06T16:38:51Z</time>
      </trkpt>
      <trkpt lat="49.12743" lon="7.07837">
        <ele>201.4</ele>
        <time>2022-03-06T16:39:01Z</time>
      </trkpt>
      <trkpt lat="49.1275" lon="7.07849">
        <ele>201.3</ele>
        <time>2022-03-06T16:39:07Z</time>
      </trkpt>
      <trkpt lat="49.12749" lon="7.07864">
        <ele>201.2</ele>
        <time>2022-03-06T16:39:20Z</time>
      </trkpt>
      <trkpt lat="49.12758" lon="7.07876">
        <ele>201</ele>
        <time>2022-03-06T16:39:25Z</time>
      </trkpt>
      <trkpt lat="49.12766" lon="7.0788">
        <ele>200.9</ele>
        <time>2022-03-06T16:39:28Z</time>
      </trkpt>
      <trkpt lat="49.12772" lon="7.07893">
        <ele>200.9</ele>
        <time>2022-03-06T16:39:37Z</time>
      </trkpt>
      <trkpt lat="49.12774" lon="7.07908">
        <ele>200.8</ele>
        <time>2022-03-06T16:39:44Z</time>
      </trkpt>
      <trkpt lat="49.12775" lon="7.07923">
        <ele>200.8</ele>
        <time>2022-03-06T16:39:53Z</time>
      </trkpt>
      <trkpt lat="49.12783" lon="7.07934">
        <ele>200.7</ele>
        <time>2022-03-06T16:40:00Z</time>
      </trkpt>
      <trkpt lat="49.12789" lon="7.07946">
        <ele>200.7</ele>
        <time>2022-03-06T16:40:09Z</time>
      </trkpt>
      <trkpt lat="49.12787" lon="7.0796">
        <ele>200.7</ele>
        <time>2022-03-06T16:40:18Z</time>
      </trkpt>
      <trkpt lat="49.12793" lon="7.07971">
        <ele>200.6</ele>
        <time>2022-03-06T16:40:26Z</time>
      </trkpt>
      <trkpt lat="49.12793" lon="7.07986">
        <ele>200.6</ele>
        <time>2022-03-06T16:40:34Z</time>
      </trkpt>
      <trkpt lat="49.12785" lon="7.07995">
        <ele>200.6</ele>
        <time>2022-03-06T16:40:39Z</time>
      </trkpt>
      <trkpt lat="49.12782" lon="7.0801">
        <ele>200.7</ele>
        <time>2022-03-06T16:40:46Z</time>
      </trkpt>
      <trkpt lat="49.12785" lon="7.08024">
        <ele>200.7</ele>
        <time>2022-03-06T16:40:53Z</time>
      </trkpt>
      <trkpt lat="49.12792" lon="7.08034">
        <ele>200.8</ele>
        <time>2022-03-06T16:41:01Z</time>
      </trkpt>
      <trkpt lat="49.12798" lon="7.08044">
        <ele>200.8</ele>
        <time>2022-03-06T16:41:09Z</time>
      </trkpt>
      <trkpt lat="49.12804" lon="7.0806">
        <ele>200.9</ele>
        <time>2022-03-06T16:41:17Z</time>
      </trkpt>
      <trkpt lat="49.12797" lon="7.08069">
        <ele>200.9</ele>
        <time>2022-03-06T16:41:25Z</time>
      </trkpt>
      <trkpt lat="49.12794" lon="7.08082">
        <ele>200.9</ele>
        <time>2022-03-06T16:41:32Z</time>
      </trkpt>
      <trkpt lat="49.12798" lon="7.08097">
        <ele>201</ele>
        <time>2022-03-06T16:41:40Z</time>
      </trkpt>
      <trkpt lat="49.12806" lon="7.08105">
        <ele>201.1</ele>
        <time>2022-03-06T16:41:45Z</time>
      </trkpt>
      <trkpt lat="49.12812" lon="7.08119">
        <ele>201.2</ele>
        <time>2022-03-06T16:41:55Z</time>
      </trkpt>
      <trkpt lat="49.12817" lon="7.08131">
        <ele>201.3</ele>
        <time>2022-03-06T16:42:02Z</time>
      </trkpt>
      <trkpt lat="49.12822" lon="7.08144">
        <ele>201.4</ele>
        <time>2022-03-06T16:42:07Z</time>
      </trkpt>
      <trkpt lat="49.12829" lon="7.0817">
        <ele>201.5</ele>
        <time>2022-03-06T16:42:17Z</time>
      </trkpt>
      <trkpt lat="49.12833" lon="7.08182">
        <ele>201.6</ele>
        <time>2022-03-06T16:42:25Z</time>
      </trkpt>
      <trkpt lat="49.12836" lon="7.08194">
        <ele>201.7</ele>
        <time>2022-03-06T16:42:33Z</time>
      </trkpt>
      <trkpt lat="49.12839" lon="7.08207">
        <ele>201.7</ele>
        <time>2022-03-06T16:42:45Z</time>
      </trkpt>
      <trkpt lat="49.12842" lon="7.08219">
        <ele>201.8</ele>
        <time>2022-03-06T16:42:56Z</time>
      </trkpt>
      <trkpt lat="49.12846" lon="7.08232">
        <ele>201.8</ele>
        <time>2022-03-06T16:43:04Z</time>
      </trkpt>
      <trkpt lat="49.12849" lon="7.08244">
        <ele>201.9</ele>
        <time>2022-03-06T16:43:16Z</time>
      </trkpt>
      <trkpt lat="49.12852" lon="7.08256">
        <ele>201.9</ele>
        <time>2022-03-06T16:43:33Z</time>
      </trkpt>
      <trkpt lat="49.12855" lon="7.08269">
        <ele>201.9</ele>
        <time>2022-03-06T16:43:34Z</time>
      </trkpt>
      <trkpt lat="49.12855" lon="7.08287">
        <ele>201.9</ele>
        <time>2022-03-06T16:43:39Z</time>
      </trkpt>
      <trkpt lat="49.12858" lon="7.083">
        <ele>201.9</ele>
        <time>2022-03-06T16:43:43Z</time>
      </trkpt>
      <trkpt lat="49.12864" lon="7.08316">
        <ele>202</ele>
        <time>2022-03-06T16:43:49Z</time>
      </trkpt>
      <trkpt lat="49.12875" lon="7.08379">
        <ele>202.1</ele>
        <time>2022-03-06T16:44:22Z</time>
      </trkpt>
      <trkpt lat="49.12881" lon="7.08393">
        <ele>202.1</ele>
        <time>2022-03-06T16:44:25Z</time>
      </trkpt>
      <trkpt lat="49.12876" lon="7.08404">
        <ele>202.1</ele>
        <time>2022-03-06T16:44:32Z</time>
      </trkpt>
      <trkpt lat="49.12879" lon="7.08418">
        <ele>202</ele>
        <time>2022-03-06T16:44:56Z</time>
      </trkpt>
      <trkpt lat="49.12885" lon="7.08431">
        <ele>202</ele>
        <time>2022-03-06T16:45:01Z</time>
      </trkpt>
      <trkpt lat="49.12893" lon="7.08439">
        <ele>201.9</ele>
        <time>2022-03-06T16:45:08Z</time>
      </trkpt>
      <trkpt lat="49.12895" lon="7.08454">
        <ele>201.9</ele>
        <time>2022-03-06T16:45:17Z</time>
      </trkpt>
      <trkpt lat="49.12897" lon="7.08468">
        <ele>202</ele>
        <time>2022-03-06T16:45:23Z</time>
      </trkpt>
      <trkpt lat="49.12902" lon="7.08481">
        <ele>202.1</ele>
        <time>2022-03-06T16:45:27Z</time>
      </trkpt>
      <trkpt lat="49.12904" lon="7.08497">
        <ele>202.2</ele>
        <time>2022-03-06T16:45:33Z</time>
      </trkpt>
      <trkpt lat="49.12902" lon="7.08513">
        <ele>202.2</ele>
        <time>2022-03-06T16:45:41Z</time>
      </trkpt>
      <trkpt lat="49.12908" lon="7.08524">
        <ele>202.2</ele>
        <time>2022-03-06T16:45:46Z</time>
      </trkpt>
      <trkpt lat="49.12915" lon="7.08537">
        <ele>202.3</ele>
        <time>2022-03-06T16:45:50Z</time>
      </trkpt>
      <trkpt lat="49.12915" lon="7.08552">
        <ele>202.3</ele>
        <time>2022-03-06T16:45:59Z</time>
      </trkpt>
      <trkpt lat="49.1292" lon="7.08565">
        <ele>202.3</ele>
        <time>2022-03-06T16:46:07Z</time>
      </trkpt>
      <trkpt lat="49.12924" lon="7.08578">
        <ele>202.2</ele>
        <time>2022-03-06T16:46:17Z</time>
      </trkpt>
      <trkpt lat="49.1293" lon="7.08589">
        <ele>202.2</ele>
        <time>2022-03-06T16:46:22Z</time>
      </trkpt>
      <trkpt lat="49.12937" lon="7.08599">
        <ele>202.2</ele>
        <time>2022-03-06T16:46:29Z</time>
      </trkpt>
      <trkpt lat="49.12941" lon="7.08612">
        <ele>202.2</ele>
        <time>2022-03-06T16:46:36Z</time>
      </trkpt>
      <trkpt lat="49.12948" lon="7.08623">
        <ele>202.2</ele>
        <time>2022-03-06T16:46:46Z</time>
      </trkpt>
      <trkpt lat="49.12954" lon="7.08635">
        <ele>202.2</ele>
        <time>2022-03-06T16:46:54Z</time>
      </trkpt>
      <trkpt lat="49.12959" lon="7.08649">
        <ele>202.3</ele>
        <time>2022-03-06T16:47:00Z</time>
      </trkpt>
      <trkpt lat="49.12962" lon="7.08663">
        <ele>202.3</ele>
        <time>2022-03-06T16:47:12Z</time>
      </trkpt>
      <trkpt lat="49.12969" lon="7.08674">
        <ele>202.3</ele>
        <time>2022-03-06T16:47:27Z</time>
      </trkpt>
      <trkpt lat="49.12976" lon="7.08683">
        <ele>202.3</ele>
        <time>2022-03-06T16:47:31Z</time>
      </trkpt>
      <trkpt lat="49.1298" lon="7.08696">
        <ele>202.3</ele>
        <time>2022-03-06T16:47:37Z</time>
      </trkpt>
      <trkpt lat="49.12986" lon="7.08707">
        <ele>202.3</ele>
        <time>2022-03-06T16:47:42Z</time>
      </trkpt>
      <trkpt lat="49.12992" lon="7.0872">
        <ele>202.2</ele>
        <time>2022-03-06T16:47:52Z</time>
      </trkpt>
      <trkpt lat="49.12997" lon="7.08735">
        <ele>202.2</ele>
        <time>2022-03-06T16:48:01Z</time>
      </trkpt>
      <trkpt lat="49.12999" lon="7.08746">
        <ele>202.2</ele>
        <time>2022-03-06T16:48:07Z</time>
      </trkpt>
      <trkpt lat="49.13" lon="7.08747">
        <ele>202.2</ele>
        <time>2022-03-06T16:48:08Z</time>
      </trkpt>
      <trkpt lat="49.12999" lon="7.08749">
        <ele>202.2</ele>
        <time>2022-03-06T16:48:10Z</time>
      </trkpt>
      <trkpt lat="49.13" lon="7.08748">
        <ele>202.2</ele>
        <time>2022-03-06T16:48:11Z</time>
      </trkpt>
      <trkpt lat="49.1301" lon="7.08757">
        <ele>202.2</ele>
        <time>2022-03-06T16:48:30Z</time>
      </trkpt>
      <trkpt lat="49.13015" lon="7.08768">
        <ele>202.2</ele>
        <time>2022-03-06T16:48:33Z</time>
      </trkpt>
      <trkpt lat="49.13019" lon="7.08781">
        <ele>202.2</ele>
        <time>2022-03-06T16:48:38Z</time>
      </trkpt>
      <trkpt lat="49.13027" lon="7.08791">
        <ele>202.2</ele>
        <time>2022-03-06T16:48:42Z</time>
      </trkpt>
      <trkpt lat="49.13034" lon="7.08805">
        <ele>202.2</ele>
        <time>2022-03-06T16:48:46Z</time>
      </trkpt>
      <trkpt lat="49.13042" lon="7.08814">
        <ele>202.2</ele>
        <time>2022-03-06T16:48:52Z</time>
      </trkpt>
      <trkpt lat="49.13046" lon="7.08826">
        <ele>202.2</ele>
        <time>2022-03-06T16:48:58Z</time>
      </trkpt>
      <trkpt lat="49.13049" lon="7.08841">
        <ele>202.2</ele>
        <time>2022-03-06T16:49:07Z</time>
      </trkpt>
      <trkpt lat="49.13057" lon="7.08841">
        <ele>202.2</ele>
        <time>2022-03-06T16:49:16Z</time>
      </trkpt>
      <trkpt lat="49.13057" lon="7.0884">
        <ele>202.2</ele>
        <time>2022-03-06T16:49:17Z</time>
      </trkpt>
      <trkpt lat="49.13066" lon="7.08847">
        <ele>202.3</ele>
        <time>2022-03-06T16:49:26Z</time>
      </trkpt>
      <trkpt lat="49.13075" lon="7.08853">
        <ele>202.4</ele>
        <time>2022-03-06T16:49:33Z</time>
      </trkpt>
      <trkpt lat="49.13082" lon="7.08864">
        <ele>202.5</ele>
        <time>2022-03-06T16:49:38Z</time>
      </trkpt>
      <trkpt lat="49.1309" lon="7.08871">
        <ele>203.2</ele>
        <time>2022-03-06T16:49:44Z</time>
      </trkpt>
      <trkpt lat="49.13092" lon="7.08872">
        <ele>203.3</ele>
        <time>2022-03-06T16:49:48Z</time>
      </trkpt>
      <trkpt lat="49.13092" lon="7.08874">
        <ele>203.3</ele>
        <time>2022-03-06T16:49:49Z</time>
      </trkpt>
      <trkpt lat="49.13095" lon="7.08857">
        <ele>203.8</ele>
        <time>2022-03-06T16:50:07Z</time>
      </trkpt>
      <trkpt lat="49.13085" lon="7.08833">
        <ele>204.7</ele>
        <time>2022-03-06T16:50:18Z</time>
      </trkpt>
      <trkpt lat="49.13085" lon="7.08818">
        <ele>205.3</ele>
        <time>2022-03-06T16:50:29Z</time>
      </trkpt>
      <trkpt lat="49.13081" lon="7.088">
        <ele>206.1</ele>
        <time>2022-03-06T16:50:42Z</time>
      </trkpt>
      <trkpt lat="49.13073" lon="7.08791">
        <ele>206.9</ele>
        <time>2022-03-06T16:50:53Z</time>
      </trkpt>
      <trkpt lat="49.13082" lon="7.08789">
        <ele>207.6</ele>
        <time>2022-03-06T16:50:55Z</time>
      </trkpt>
      <trkpt lat="49.13092" lon="7.08789">
        <ele>208.4</ele>
        <time>2022-03-06T16:50:57Z</time>
      </trkpt>
      <trkpt lat="49.13105" lon="7.08772">
        <ele>209.7</ele>
        <time>2022-03-06T16:51:08Z</time>
      </trkpt>
      <trkpt lat="49.13115" lon="7.08765">
        <ele>210.6</ele>
        <time>2022-03-06T16:51:13Z</time>
      </trkpt>
      <trkpt lat="49.13127" lon="7.08759">
        <ele>211.5</ele>
        <time>2022-03-06T16:51:17Z</time>
      </trkpt>
      <trkpt lat="49.13138" lon="7.08757">
        <ele>212.3</ele>
        <time>2022-03-06T16:51:19Z</time>
      </trkpt>
      <trkpt lat="49.13142" lon="7.08744">
        <ele>213.1</ele>
        <time>2022-03-06T16:51:25Z</time>
      </trkpt>
      <trkpt lat="49.13136" lon="7.08732">
        <ele>213.8</ele>
        <time>2022-03-06T16:51:35Z</time>
      </trkpt>
      <trkpt lat="49.13133" lon="7.08713">
        <ele>214.8</ele>
        <time>2022-03-06T16:51:46Z</time>
      </trkpt>
      <trkpt lat="49.13144" lon="7.08707">
        <ele>215.7</ele>
        <time>2022-03-06T16:52:00Z</time>
      </trkpt>
      <trkpt lat="49.13175" lon="7.08699">
        <ele>217.9</ele>
        <time>2022-03-06T16:52:05Z</time>
      </trkpt>
      <trkpt lat="49.13187" lon="7.08696">
        <ele>218.6</ele>
        <time>2022-03-06T16:52:06Z</time>
      </trkpt>
      <trkpt lat="49.13194" lon="7.08686">
        <ele>219.2</ele>
        <time>2022-03-06T16:52:09Z</time>
      </trkpt>
      <trkpt lat="49.13195" lon="7.08671">
        <ele>219.7</ele>
        <time>2022-03-06T16:52:15Z</time>
      </trkpt>
      <trkpt lat="49.13205" lon="7.08666">
        <ele>220.2</ele>
        <time>2022-03-06T16:52:17Z</time>
      </trkpt>
      <trkpt lat="49.13219" lon="7.08659">
        <ele>220.9</ele>
        <time>2022-03-06T16:52:19Z</time>
      </trkpt>
      <trkpt lat="49.13231" lon="7.08655">
        <ele>221.5</ele>
        <time>2022-03-06T16:52:21Z</time>
      </trkpt>
      <trkpt lat="49.13237" lon="7.08643">
        <ele>221.9</ele>
        <time>2022-03-06T16:52:30Z</time>
      </trkpt>
      <trkpt lat="49.13235" lon="7.08628">
        <ele>222.3</ele>
        <time>2022-03-06T16:52:41Z</time>
      </trkpt>
      <trkpt lat="49.13239" lon="7.08614">
        <ele>222.7</ele>
        <time>2022-03-06T16:52:51Z</time>
      </trkpt>
      <trkpt lat="49.13227" lon="7.08606">
        <ele>223.2</ele>
        <time>2022-03-06T16:52:57Z</time>
      </trkpt>
      <trkpt lat="49.13233" lon="7.08595">
        <ele>223.6</ele>
        <time>2022-03-06T16:53:07Z</time>
      </trkpt>
      <trkpt lat="49.13242" lon="7.08593">
        <ele>223.9</ele>
        <time>2022-03-06T16:53:12Z</time>
      </trkpt>
      <trkpt lat="49.13249" lon="7.08581">
        <ele>224.3</ele>
        <time>2022-03-06T16:53:21Z</time>
      </trkpt>
      <trkpt lat="49.13258" lon="7.08574">
        <ele>224.7</ele>
        <time>2022-03-06T16:53:26Z</time>
      </trkpt>
      <trkpt lat="49.13275" lon="7.08556">
        <ele>225.5</ele>
        <time>2022-03-06T16:53:34Z</time>
      </trkpt>
      <trkpt lat="49.13283" lon="7.08547">
        <ele>225.9</ele>
        <time>2022-03-06T16:53:40Z</time>
      </trkpt>
      <trkpt lat="49.13293" lon="7.08549">
        <ele>226.3</ele>
        <time>2022-03-06T16:53:43Z</time>
      </trkpt>
      <trkpt lat="49.13304" lon="7.0854">
        <ele>226.8</ele>
        <time>2022-03-06T16:53:48Z</time>
      </trkpt>
      <trkpt lat="49.13314" lon="7.08533">
        <ele>227.2</ele>
        <time>2022-03-06T16:53:51Z</time>
      </trkpt>
      <trkpt lat="49.13317" lon="7.08519">
        <ele>227.4</ele>
        <time>2022-03-06T16:53:57Z</time>
      </trkpt>
      <trkpt lat="49.1332" lon="7.08503">
        <ele>227.7</ele>
        <time>2022-03-06T16:54:07Z</time>
      </trkpt>
      <trkpt lat="49.13327" lon="7.08496">
        <ele>227.9</ele>
        <time>2022-03-06T16:54:09Z</time>
      </trkpt>
      <trkpt lat="49.13332" lon="7.08482">
        <ele>228</ele>
        <time>2022-03-06T16:54:15Z</time>
      </trkpt>
      <trkpt lat="49.13321" lon="7.08477">
        <ele>228.1</ele>
        <time>2022-03-06T16:54:21Z</time>
      </trkpt>
      <trkpt lat="49.13405" lon="7.08246">
        <ele>237.6</ele>
        <time>2022-03-06T16:56:51Z</time>
      </trkpt>
      <trkpt lat="49.13413" lon="7.08243">
        <ele>237.9</ele>
        <time>2022-03-06T16:56:53Z</time>
      </trkpt>
      <trkpt lat="49.13439" lon="7.08191">
        <ele>239.2</ele>
        <time>2022-03-06T16:57:39Z</time>
      </trkpt>
      <trkpt lat="49.1345" lon="7.08189">
        <ele>239.6</ele>
        <time>2022-03-06T16:57:42Z</time>
      </trkpt>
      <trkpt lat="49.13462" lon="7.08192">
        <ele>240</ele>
        <time>2022-03-06T16:57:44Z</time>
      </trkpt>
      <trkpt lat="49.13465" lon="7.08178">
        <ele>240.3</ele>
        <time>2022-03-06T16:57:59Z</time>
      </trkpt>
      <trkpt lat="49.13461" lon="7.08164">
        <ele>240.6</ele>
        <time>2022-03-06T16:58:06Z</time>
      </trkpt>
      <trkpt lat="49.13454" lon="7.08151">
        <ele>241</ele>
        <time>2022-03-06T16:58:10Z</time>
      </trkpt>
      <trkpt lat="49.13454" lon="7.08148">
        <ele>241.1</ele>
        <time>2022-03-06T16:58:13Z</time>
      </trkpt>
      <trkpt lat="49.13454" lon="7.08148">
        <ele>241.1</ele>
        <time>2022-03-06T16:58:14Z</time>
      </trkpt>
      <trkpt lat="49.13432" lon="7.08115">
        <ele>242.3</ele>
        <time>2022-03-06T16:58:31Z</time>
      </trkpt>
      <trkpt lat="49.13447" lon="7.0811">
        <ele>242.8</ele>
        <time>2022-03-06T16:58:33Z</time>
      </trkpt>
      <trkpt lat="49.13458" lon="7.081">
        <ele>243.3</ele>
        <time>2022-03-06T16:58:42Z</time>
      </trkpt>
      <trkpt lat="49.1347" lon="7.08099">
        <ele>243.8</ele>
        <time>2022-03-06T16:58:44Z</time>
      </trkpt>
      <trkpt lat="49.13479" lon="7.08096">
        <ele>244.1</ele>
        <time>2022-03-06T16:58:46Z</time>
      </trkpt>
      <trkpt lat="49.13502" lon="7.08087">
        <ele>245</ele>
        <time>2022-03-06T16:58:59Z</time>
      </trkpt>
      <trkpt lat="49.13515" lon="7.08081">
        <ele>245.5</ele>
        <time>2022-03-06T16:59:06Z</time>
      </trkpt>
      <trkpt lat="49.13507" lon="7.08064">
        <ele>246</ele>
        <time>2022-03-06T16:59:12Z</time>
      </trkpt>
      <trkpt lat="49.13507" lon="7.08064">
        <ele>246</ele>
        <time>2022-03-06T16:59:13Z</time>
      </trkpt>
      <trkpt lat="49.13506" lon="7.08063">
        <ele>246.1</ele>
        <time>2022-03-06T16:59:14Z</time>
      </trkpt>
      <trkpt lat="49.13498" lon="7.08056">
        <ele>246.4</ele>
        <time>2022-03-06T16:59:19Z</time>
      </trkpt>
      <trkpt lat="49.13491" lon="7.08034">
        <ele>247</ele>
        <time>2022-03-06T16:59:30Z</time>
      </trkpt>
      <trkpt lat="49.13491" lon="7.08027">
        <ele>247.2</ele>
        <time>2022-03-06T16:59:36Z</time>
      </trkpt>
      <trkpt lat="49.13491" lon="7.0802">
        <ele>247.4</ele>
        <time>2022-03-06T16:59:44Z</time>
      </trkpt>
      <trkpt lat="49.13491" lon="7.08013">
        <ele>247.5</ele>
        <time>2022-03-06T17:00:02Z</time>
      </trkpt>
      <trkpt lat="49.13491" lon="7.08006">
        <ele>248.1</ele>
        <time>2022-03-06T17:00:02Z</time>
      </trkpt>
      <trkpt lat="49.13491" lon="7.08006">
        <ele>248.1</ele>
        <time>2022-03-06T17:00:02Z</time>
      </trkpt>
      <trkpt lat="49.13491" lon="7.08006">
        <ele>248.1</ele>
        <time>2022-03-06T17:00:02Z</time>
      </trkpt>
    </trkseg>
  </trk>
</gpx>